Home > Products > Valid Products > TAF

000
FTUS41 KOKX 030533 CCA
TAFSWF
TAF COR
KSWF 030533Z 0306/0412 VRB03KT P6SM SCT250
     FM031300 25008KT P6SM SCT250
     FM031600 24012G18KT P6SM SCT070 SCT250
     FM031800 23014G20KT P6SM SCT070 PROB30 0322/0402 TS BKN050CB
     FM040200 20006KT P6SM VCSH SCT060 BKN100
     FM040600 24004KT P6SM VCSH SCT050 BKN100
      AMD NOT SKED=



000
FTUS41 KOKX 030533 CCA
TAFSWF
TAF COR
KSWF 030533Z 0306/0412 VRB03KT P6SM SCT250
     FM031300 25008KT P6SM SCT250
     FM031600 24012G18KT P6SM SCT070 SCT250
     FM031800 23014G20KT P6SM SCT070 PROB30 0322/0402 TS BKN050CB
     FM040200 20006KT P6SM VCSH SCT060 BKN100
     FM040600 24004KT P6SM VCSH SCT050 BKN100
      AMD NOT SKED=



000
FTUS41 KOKX 030525
TAFEWR
TAF
KEWR 030525Z 0306/0412 22006KT P6SM SCT250
     FM031500 22012G18KT P6SM SCT070
     FM031800 20014G20KT P6SM SCT070
     FM040000 22010KT P6SM FEW070 BKN200=



000
FTUS41 KOKX 030525
TAFJFK
TAF
KJFK 030525Z 0306/0412 21007KT P6SM SCT250
     FM031500 19013KT P6SM FEW070 SCT250
     FM031800 19016G22KT P6SM SCT070
     FM032000 19021G26KT P6SM SCT070
     FM040200 19016KT P6SM SCT070 BKN200
     FM040600 21010KT P6SM FEW070 BKN200=



000
FTUS41 KOKX 030525
TAFSWF
TAF
KSWF 030525Z 0306/0412 VRB03KT P6SM SCT250
     FM031300 25008KT P6SM SCT250
     FM031600 24012G18KT P6SM SCT070 SCT250
     FM031800 23014G20KT P6SM SCT070 PROB30 0319/0324 TS BKN050CB
     FM040000 20006KT P6SM VCSH SCT060 BKN100
     FM040600 24004KT P6SM VCSH SCT050 BKN100
      AMD NOT SKED=



000
FTUS41 KOKX 030525
TAFLGA
TAF
KLGA 030525Z 0306/0406 21006KT P6SM SCT250
     FM031500 22012G18KT P6SM FEW070 SCT250
     FM031900 19016G23KT P6SM SCT070
     FM040000 20014KT P6SM SCT070 BKN200
     FM040500 21010KT P6SM FEW070 BKN200=



000
FTUS41 KOKX 030525
TAFISP
TAF
KISP 030525Z 0306/0406 20005KT P6SM SCT250
     FM030900 21005KT P6SM SCT010 SCT250
     FM031400 20010KT P6SM SCT250
     FM031700 19014G21KT P6SM FEW070 SCT250
     FM040200 19012KT P6SM FEW070 BKN200=



000
FTUS41 KOKX 030525
TAFBDR
TAF
KBDR 030525Z 0306/0406 20003KT P6SM SCT250
     FM031400 21010KT P6SM FEW070 SCT250
     FM031900 18013G19KT P6SM SCT070 SCT250
     FM040000 22010KT P6SM FEW070 BKN200=



000
FTUS41 KOKX 030525
TAFGON
TAF
KGON 030525Z 0306/0406 18003KT 6SM BR SCT008 SCT250
      TEMPO 0306/0310 2SM BR
     FM031200 21006KT P6SM SCT250
     FM031500 20010KT P6SM FEW070 SCT250
     FM031900 19012G18KT P6SM FEW070 SCT250
     FM040000 21006KT P6SM FEW070 SCT250=



000
FTUS41 KOKX 030525
TAFTEB
TAF
KTEB 030525Z 0306/0406 VRB04KT P6SM SCT250
     FM031400 22008KT P6SM SCT070
     FM031600 20012G20KT P6SM SCT070
     FM040000 21010KT P6SM SCT070 BKN200
     FM040400 21007KT P6SM FEW070 BKN200=



000
FTUS41 KOKX 030220 AAA
TAFTEB
TAF AMD
KTEB 030220Z 0302/0324 VRB04KT P6SM SCT250
     FM031400 22009KT P6SM SCT070
     FM031600 20012G18KT P6SM SCT070=



000
FTUS41 KOKX 030220 AAA
TAFJFK
TAF AMD
KJFK 030220Z 0302/0406 18010KT P6SM SCT250
     FM030500 21007KT P6SM SCT250
     FM031500 19013KT P6SM FEW070 SCT250
     FM031800 19016G22KT P6SM SCT070
     FM032000 19021G26KT P6SM SCT070
     FM040000 19016KT P6SM SCT070=



000
FTUS41 KOKX 030220 AAA
TAFGON
TAF AMD
KGON 030220Z 0302/0324 18005KT P6SM FEW250
     FM030500 18003KT 6SM BR SCT008 SCT250
      TEMPO 0306/0310 4SM BR
     FM031200 21006KT P6SM SCT250
     FM031500 20010KT P6SM FEW070 SCT250
     FM031900 19012G18KT P6SM FEW070 SCT250=



000
FTUS41 KOKX 030220 AAA
TAFISP
TAF AMD
KISP 030220Z 0302/0324 20005KT P6SM SCT250
     FM030900 21005KT P6SM SCT010 SCT250
     FM031400 20010KT P6SM SCT250
     FM031700 19014G21KT P6SM FEW070 SCT250=



000
FTUS41 KOKX 030220 AAA
TAFBDR
TAF AMD
KBDR 030220Z 0302/0324 20003KT P6SM SCT250
     FM031400 21010KT P6SM FEW070 SCT250
     FM031900 18013G19KT P6SM FEW070 SCT250=



000
FTUS41 KOKX 030220 AAA
TAFLGA
TAF AMD
KLGA 030220Z 0302/0324 19009KT P6SM SCT250
     FM030400 21006KT P6SM SCT250
     FM031500 22012G18KT P6SM FEW070 SCT250
     FM031900 19016G23KT P6SM SCT070=



000
FTUS41 KOKX 030220 AAA
TAFSWF
TAF AMD
KSWF 030220Z 0302/0406 VRB03KT P6SM SCT250
     FM031300 25008KT P6SM SCT250
     FM031600 24012G18KT P6SM SCT070 SCT250
     FM031800 23014G20KT P6SM SCT070 PROB30 0319/0324 TS BKN050CB
     FM040000 20006KT P6SM VCSH SCT060 BKN100
      AMD NOT SKED=



000
FTUS41 KOKX 030220 AAA
TAFEWR
TAF AMD
KEWR 030220Z 0302/0406 24010KT P6SM SCT090 BKN250
     FM030300 21006KT P6SM SCT250
     FM031500 22012G18KT P6SM SCT070
     FM031800 20014G20KT P6SM SCT070
     FM040000 21010KT P6SM SCT070=



000
FTUS41 KOKX 030220 AAA
TAFEWR
TAF AMD
KEWR 030220Z 0302/0406 24010KT P6SM SCT090 BKN250
     FM030300 21006KT P6SM SCT250
     FM031500 22012G18KT P6SM SCT070
     FM031800 20014G20KT P6SM SCT070
     FM040000 21010KT P6SM SCT070=



000
FTUS41 KOKX 030220 AAA
TAFSWF
TAF AMD
KSWF 030220Z 0302/0406 VRB03KT P6SM SCT250
     FM031300 25008KT P6SM SCT250
     FM031600 24012G18KT P6SM SCT070 SCT250
     FM031800 23014G20KT P6SM SCT070 PROB30 0319/0324 TS BKN050CB
     FM040000 20006KT P6SM VCSH SCT060 BKN100
      AMD NOT SKED=



000
FTUS41 KOKX 030220 AAA
TAFJFK
TAF AMD
KJFK 030220Z 0302/0406 18010KT P6SM SCT250
     FM030500 21007KT P6SM SCT250
     FM031500 19013KT P6SM FEW070 SCT250
     FM031800 19016G22KT P6SM SCT070
     FM032000 19021G26KT P6SM SCT070
     FM040000 19016KT P6SM SCT070=



000
FTUS41 KOKX 030220 AAA
TAFGON
TAF AMD
KGON 030220Z 0302/0324 18005KT P6SM FEW250
     FM030500 18003KT 6SM BR SCT008 SCT250
      TEMPO 0306/0310 4SM BR
     FM031200 21006KT P6SM SCT250
     FM031500 20010KT P6SM FEW070 SCT250
     FM031900 19012G18KT P6SM FEW070 SCT250=



000
FTUS41 KOKX 030220 AAA
TAFISP
TAF AMD
KISP 030220Z 0302/0324 20005KT P6SM SCT250
     FM030900 21005KT P6SM SCT010 SCT250
     FM031400 20010KT P6SM SCT250
     FM031700 19014G21KT P6SM FEW070 SCT250=



000
FTUS41 KOKX 030220 AAA
TAFBDR
TAF AMD
KBDR 030220Z 0302/0324 20003KT P6SM SCT250
     FM031400 21010KT P6SM FEW070 SCT250
     FM031900 18013G19KT P6SM FEW070 SCT250=



000
FTUS41 KOKX 030220 AAA
TAFLGA
TAF AMD
KLGA 030220Z 0302/0324 19009KT P6SM SCT250
     FM030400 21006KT P6SM SCT250
     FM031500 22012G18KT P6SM FEW070 SCT250
     FM031900 19016G23KT P6SM SCT070=



000
FTUS41 KOKX 030220 AAA
TAFTEB
TAF AMD
KTEB 030220Z 0302/0324 VRB04KT P6SM SCT250
     FM031400 22009KT P6SM SCT070
     FM031600 20012G18KT P6SM SCT070=



000
FTUS41 KOKX 022337
TAFBDR
TAF
KBDR 022337Z 0300/0324 18008KT P6SM FEW250
     FM030100 20005KT P6SM SCT250
     FM031400 21010KT P6SM FEW070 SCT250
     FM031900 18013G19KT P6SM FEW070 SCT250=



000
FTUS41 KOKX 022337
TAFLGA
TAF
KLGA 022337Z 0300/0324 18012G18KT P6SM FEW060 SCT250
     FM030100 19009KT P6SM SCT250
     FM030400 21006KT P6SM SCT250
     FM031500 22012G18KT P6SM FEW070 SCT250
     FM031900 19016G22KT P6SM SCT070=



000
FTUS41 KOKX 022337
TAFJFK
TAF
KJFK 022337Z 0300/0406 17012G18KT P6SM FEW070 BKN250
     FM030100 18010KT P6SM SCT250
     FM030500 21007KT P6SM SCT250
     FM031500 19013KT P6SM FEW070 SCT250
     FM031800 19016G22KT P6SM SCT070
     FM032000 19021G26KT P6SM SCT070
     FM040000 19016KT P6SM SCT070=



000
FTUS41 KOKX 022337
TAFTEB
TAF
KTEB 022337Z 0300/0324 17008KT P6SM SCT250
     FM030200 20004KT P6SM SCT250
     FM031400 22009KT P6SM SCT070
     FM031600 20012G18KT P6SM SCT070=



000
FTUS41 KOKX 022337
TAFEWR
TAF
KEWR 022337Z 0300/0406 24010KT P6SM SCT090 BKN250
     FM030300 21006KT P6SM SCT250
     FM031500 22012G18KT P6SM SCT070
     FM031800 20014G20KT P6SM SCT070
     FM040000 21010KT P6SM SCT070=



000
FTUS41 KOKX 022337
TAFGON
TAF
KGON 022337Z 0300/0324 18007KT P6SM FEW250
     FM030300 20004KT 6SM BR SCT008 SCT250
      TEMPO 0306/0310 4SM BR
     FM031200 21006KT P6SM SCT250
     FM031500 20010KT P6SM FEW070 SCT250
     FM031900 19012G18KT P6SM FEW070 SCT250=



000
FTUS41 KOKX 022337
TAFISP
TAF
KISP 022337Z 0300/0324 18010KT P6SM FEW045 SCT250
     FM030100 20005KT P6SM SCT250
     FM030900 21005KT P6SM SCT010 SCT250
     FM031400 20010KT P6SM SCT250
     FM031700 19014G21KT P6SM FEW070 SCT250=



000
FTUS41 KOKX 022337
TAFSWF
TAF
KSWF 022337Z 0300/0406 25012KT P6SM SCT070
     FM030100 VRB03KT P6SM SCT250
     FM031300 25008KT P6SM SCT250
     FM031600 24012G18KT P6SM SCT070 SCT250
     FM031800 23014G20KT P6SM SCT070 PROB30 0319/0324 TS BKN050CB
     FM040000 20006KT P6SM VCSH SCT060 BKN100
      AMD NOT SKED=



000
FTUS41 KOKX 022306 AAC
TAFEWR
TAF AMD
KEWR 022306Z 0223/0324 24008KT P6SM SCT090 BKN250
     FM030200 21006KT P6SM SCT250
     FM031500 22012G20KT P6SM SCT070
     FM032000 19012G20KT P6SM SCT070=



000
FTUS41 KOKX 022028 AAB
TAFJFK
TAF AMD
KJFK 022028Z 0220/0324 16012KT P6SM FEW070 BKN250
     FM030000 18007KT P6SM SCT250
     FM030500 21007KT P6SM SCT250
     FM031500 19013KT P6SM FEW070 SCT250
     FM031800 19016KT P6SM SCT070
     FM032000 19020KT P6SM SCT070=



000
FTUS41 KOKX 022028 AAB
TAFLGA
TAF AMD
KLGA 022028Z 0220/0318 17012G19KT P6SM FEW070 BKN250
     FM022200 18012KT P6SM FEW060 SCT250
     FM030100 19008KT P6SM SCT250
     FM030400 21006KT P6SM SCT250
     FM031500 20012G20KT P6SM FEW070 SCT250=



000
FTUS41 KOKX 022028 AAA
TAFSWF
TAF AMD
KSWF 022028Z 0220/0324 27012KT P6SM SCT070
     FM030100 VRB03KT P6SM SCT250
     FM031300 25008KT P6SM SCT250
     FM031600 24014G20KT P6SM SCT070 SCT250
     FM031800 23013G20KT P6SM BKN070 PROB30 0319/0324 TS BKN050CB
      AMD NOT SKED=



000
FTUS41 KOKX 022028 AAB
TAFEWR
TAF AMD
KEWR 022028Z 0220/0324 16010KT P6SM SCT090 BKN250
     FM030000 17007KT P6SM SCT250
     FM030300 22006KT P6SM SCT250
     FM031500 22012G20KT P6SM SCT070
     FM032000 19012G20KT P6SM SCT070=



000
FTUS41 KOKX 022028 AAA
TAFTEB
TAF AMD
KTEB 022028Z 0220/0318 17008KT P6SM SCT250
     FM030200 20004KT P6SM SCT250
     FM031400 22009KT P6SM SCT070
     FM031600 21012G19KT P6SM SCT070=



000
FTUS41 KOKX 022028 AAA
TAFGON
TAF AMD
KGON 022028Z 0220/0318 20010KT P6SM FEW250
     FM030500 20004KT 6SM BR SCT008 SCT250
      TEMPO 0306/0310 4SM BR
     FM031200 21006KT P6SM SCT250
     FM031500 20010KT P6SM FEW070 SCT250=



000
FTUS41 KOKX 022028 AAA
TAFISP
TAF AMD
KISP 022028Z 0220/0318 18010KT P6SM FEW045 SCT250
     FM030000 20005KT P6SM SCT250
     FM030900 21005KT P6SM SCT010 SCT250
     FM031400 20010KT P6SM SCT250
     FM031600 19012G20KT P6SM FEW070 SCT250=



000
FTUS41 KOKX 022028 AAA
TAFBDR
TAF AMD
KBDR 022028Z 0220/0318 16008KT P6SM FEW250
     FM030000 20006KT P6SM SCT250
     FM030500 22004KT P6SM SCT250
     FM031400 21010KT P6SM FEW070 SCT250=



000
FTUS41 KOKX 021905 AAA
TAFEWR
TAF AMD
KEWR 021905Z 0219/0324 VRB06KT P6SM BKN090
     FM022000 15010KT P6SM SCT090 SCT250
     FM030000 17007KT P6SM SCT250
     FM030300 22006KT P6SM SCT250
     FM031500 22012G20KT P6SM SCT070
     FM032000 19012G20KT P6SM SCT070=



000
FTUS41 KOKX 021851 AAA
TAFJFK
TAF AMD
KJFK 021851Z 0219/0324 17012KT P6SM FEW070 SCT250
     FM030000 18007KT P6SM SCT250
     FM030500 21007KT P6SM SCT250
     FM031500 19013KT P6SM FEW070 SCT250
     FM031800 19016KT P6SM SCT070
     FM032000 19020KT P6SM SCT070=



000
FTUS41 KOKX 021850 AAA
TAFLGA
TAF AMD
KLGA 021850Z 0219/0318 18012G19KT P6SM SCT080 SCT250
     FM022200 18012KT P6SM FEW060 SCT250
     FM030100 19008KT P6SM SCT250
     FM030400 21006KT P6SM SCT250
     FM031500 20012G20KT P6SM FEW070 SCT250=



000
FTUS41 KOKX 021742
TAFLGA
TAF
KLGA 021742Z 0218/0318 18010KT P6SM FEW080 SCT250
     FM022200 18012KT P6SM FEW060 SCT250
     FM030100 20008KT P6SM SCT250
     FM031500 20012G20KT P6SM FEW070 SCT250=



000
FTUS41 KOKX 021742
TAFTEB
TAF
KTEB 021742Z 0218/0318 24009KT P6SM FEW070 SCT250
     FM022100 16008KT P6SM SCT250
     FM030000 18006KT P6SM SCT250
     FM030200 20004KT P6SM SCT250
     FM031400 22009KT P6SM SCT070
     FM031600 21012G19KT P6SM SCT070=



000
FTUS41 KOKX 021742
TAFEWR
TAF
KEWR 021742Z 0218/0324 20009KT P6SM SCT070 SCT250
     FM022000 15010KT P6SM SCT250
     FM030000 17007KT P6SM SCT250
     FM030300 22006KT P6SM SCT250
     FM031500 22012G20KT P6SM SCT070
     FM032000 19012G20KT P6SM SCT070=



000
FTUS41 KOKX 021742
TAFSWF
TAF
KSWF 021742Z 0218/0324 22007KT P6SM SCT060
     FM022000 25008KT P6SM SCT060
     FM030100 VRB03KT P6SM SCT250
     FM031300 25008KT P6SM SCT250
     FM031600 24014G20KT P6SM SCT070 SCT250
     FM031800 23013G20KT P6SM BKN070 PROB30 0319/0324 TS BKN050CB
      AMD NOT SKED=



000
FTUS41 KOKX 021742
TAFISP
TAF
KISP 021742Z 0218/0318 17010KT P6SM FEW045 SCT250
     FM022000 19010KT P6SM FEW045 SCT250
     FM030000 20005KT P6SM SCT250
     FM030900 21005KT P6SM SCT010 SCT250
     FM031400 20010KT P6SM SCT250
     FM031600 19012G20KT P6SM FEW070 SCT250=



000
FTUS41 KOKX 021742
TAFBDR
TAF
KBDR 021742Z 0218/0318 19008KT P6SM FEW250
     FM030000 20006KT P6SM SCT250
     FM030500 22004KT P6SM SCT250
     FM031400 21010KT P6SM FEW070 SCT250=



000
FTUS41 KOKX 021742
TAFJFK
TAF
KJFK 021742Z 0218/0324 18011KT P6SM FEW070 SCT250
     FM022000 18014KT P6SM SCT250
     FM030000 19007KT P6SM SCT250
     FM030500 27007KT P6SM SCT250
     FM031500 19013KT P6SM FEW070 SCT250
     FM031800 19016KT P6SM SCT070
     FM032000 19020KT P6SM SCT070=



000
FTUS41 KOKX 021742
TAFGON
TAF
KGON 021742Z 0218/0318 21010KT P6SM FEW250
     FM030000 20004KT P6SM SCT250
     FM030500 20004KT 6SM BR SCT008 SCT250
      TEMPO 0306/0310 4SM BR
     FM031200 21006KT P6SM SCT250
     FM031500 20010KT P6SM FEW070 SCT250=



000
FTUS41 KOKX 021534 AAB
TAFLGA
TAF AMD
KLGA 021534Z 0216/0312 23006KT P6SM FEW250
     FM021700 22008KT P6SM FEW250
     FM021900 20010KT P6SM FEW060 SCT250
     FM022200 18012KT P6SM FEW060 SCT250
     FM030100 20008KT P6SM SCT250=



000
FTUS41 KOKX 021534 AAB
TAFISP
TAF AMD
KISP 021534Z 0216/0312 17008KT P6SM FEW050 FEW250
     FM021800 19011KT P6SM FEW060 SCT250
     FM030100 20005KT P6SM SCT250
     FM030800 21005KT P6SM SCT020 SCT250=



000
FTUS41 KOKX 021534 AAB
TAFJFK
TAF AMD
KJFK 021534Z 0216/0318 18008KT P6SM FEW250
     FM021800 18010KT P6SM FEW060 SCT250
     FM022000 18014KT P6SM SCT250
     FM030000 18010KT P6SM SCT250
     FM031600 18014KT P6SM SCT250=



000
FTUS41 KOKX 021425 AAA
TAFISP
TAF AMD
KISP 021425Z 0214/0312 16007KT P6SM FEW250
     FM021800 18011KT P6SM FEW060 SCT250
     FM030100 20005KT P6SM SCT250
     FM030800 21005KT P6SM SCT020 SCT250=



000
FTUS41 KOKX 021425 AAA
TAFTEB
TAF AMD
KTEB 021425Z 0214/0312 VRB04KT P6SM FEW250
     FM021600 25007KT P6SM FEW250
     FM021800 21010KT P6SM FEW060 SCT250
     FM022200 16008KT P6SM SCT250
     FM030000 18006KT P6SM SCT250
     FM030200 20004KT P6SM SCT250=



000
FTUS41 KOKX 021425 AAA
TAFEWR
TAF AMD
KEWR 021425Z 0214/0318 VRB04KT P6SM FEW250
     FM021600 24008KT P6SM FEW250
     FM021900 22010G16KT P6SM FEW060 SCT250
     FM022100 15010KT P6SM SCT250
     FM030000 17007KT P6SM SCT250
     FM030300 21007KT P6SM SCT250
     FM031600 22010KT P6SM SCT250=



000
FTUS41 KOKX 021425 AAA
TAFGON
TAF AMD
KGON 021425Z 0214/0312 21007KT P6SM SKC
     FM021800 22010KT P6SM FEW060 SCT250
     FM030000 20004KT P6SM SCT250
     FM030700 21005KT P6SM SCT010 SCT250=



000
FTUS41 KOKX 021425 AAA
TAFJFK
TAF AMD
KJFK 021425Z 0214/0318 21006KT P6SM FEW250
     FM021800 18010KT P6SM FEW060 SCT250
     FM022000 18014KT P6SM SCT250
     FM030000 18010KT P6SM SCT250
     FM031600 18014KT P6SM SCT250=



000
FTUS41 KOKX 021425 AAA
TAFLGA
TAF AMD
KLGA 021425Z 0214/0312 05006KT P6SM FEW250
     FM021700 22008KT P6SM FEW250
     FM021900 20010KT P6SM FEW060 SCT250
     FM022200 18012KT P6SM FEW060 SCT250
     FM030100 20008KT P6SM SCT250=



000
FTUS41 KOKX 021425 AAA
TAFBDR
TAF AMD
KBDR 021425Z 0214/0312 23006KT P6SM SCT250
     FM021700 19010KT P6SM FEW060 SCT250
     FM030000 20006KT P6SM SCT250
     FM030800 21005KT P6SM SCT020 SCT250=



000
FTUS41 KOKX 021425 AAA
TAFGON
TAF AMD
KGON 021425Z 0214/0312 21007KT P6SM SKC
     FM021800 22010KT P6SM FEW060 SCT250
     FM030000 20004KT P6SM SCT250
     FM030700 21005KT P6SM SCT010 SCT250=



000
FTUS41 KOKX 021425 AAA
TAFJFK
TAF AMD
KJFK 021425Z 0214/0318 21006KT P6SM FEW250
     FM021800 18010KT P6SM FEW060 SCT250
     FM022000 18014KT P6SM SCT250
     FM030000 18010KT P6SM SCT250
     FM031600 18014KT P6SM SCT250=



000
FTUS41 KOKX 021425 AAA
TAFISP
TAF AMD
KISP 021425Z 0214/0312 16007KT P6SM FEW250
     FM021800 18011KT P6SM FEW060 SCT250
     FM030100 20005KT P6SM SCT250
     FM030800 21005KT P6SM SCT020 SCT250=



000
FTUS41 KOKX 021425 AAA
TAFEWR
TAF AMD
KEWR 021425Z 0214/0318 VRB04KT P6SM FEW250
     FM021600 24008KT P6SM FEW250
     FM021900 22010G16KT P6SM FEW060 SCT250
     FM022100 15010KT P6SM SCT250
     FM030000 17007KT P6SM SCT250
     FM030300 21007KT P6SM SCT250
     FM031600 22010KT P6SM SCT250=



000
FTUS41 KOKX 021425 AAA
TAFLGA
TAF AMD
KLGA 021425Z 0214/0312 05006KT P6SM FEW250
     FM021700 22008KT P6SM FEW250
     FM021900 20010KT P6SM FEW060 SCT250
     FM022200 18012KT P6SM FEW060 SCT250
     FM030100 20008KT P6SM SCT250=



000
FTUS41 KOKX 021425 AAA
TAFBDR
TAF AMD
KBDR 021425Z 0214/0312 23006KT P6SM SCT250
     FM021700 19010KT P6SM FEW060 SCT250
     FM030000 20006KT P6SM SCT250
     FM030800 21005KT P6SM SCT020 SCT250=



000
FTUS41 KOKX 021425 AAA
TAFTEB
TAF AMD
KTEB 021425Z 0214/0312 VRB04KT P6SM FEW250
     FM021600 25007KT P6SM FEW250
     FM021800 21010KT P6SM FEW060 SCT250
     FM022200 16008KT P6SM SCT250
     FM030000 18006KT P6SM SCT250
     FM030200 20004KT P6SM SCT250=



000
FTUS41 KOKX 021121
TAFJFK
TAF
KJFK 021121Z 0212/0318 30005KT P6SM FEW130
     FM021500 22007KT P6SM SCT250
     FM021800 18010KT P6SM FEW060 SCT250
     FM022000 18014KT P6SM SCT250
     FM030000 18010KT P6SM SCT250
     FM031600 18014KT P6SM SCT250=



000
FTUS41 KOKX 021121
TAFTEB
TAF
KTEB 021121Z 0212/0312 VRB04KT P6SM FEW130
     FM021500 24005KT P6SM SCT250
     FM021800 21010KT P6SM FEW060 SCT250
     FM030200 20006KT P6SM SCT250=



000
FTUS41 KOKX 021121
TAFEWR
TAF
KEWR 021121Z 0212/0318 VRB04KT P6SM FEW130
     FM021500 25006KT P6SM SCT250
     FM021800 22010G16KT P6SM FEW060 SCT250
     FM022300 16011KT P6SM SCT250
     FM030300 20006KT P6SM SCT250
     FM031600 22010KT P6SM SCT250=



000
FTUS41 KOKX 021121
TAFBDR
TAF
KBDR 021121Z 0212/0312 VRB03KT P6SM FEW130
     FM021400 23006KT P6SM SCT250
     FM021700 21010KT P6SM FEW060 SCT250
     FM030200 21006KT P6SM SCT250
     FM030800 21005KT P6SM SCT020 SCT250=



000
FTUS41 KOKX 021121
TAFLGA
TAF
KLGA 021121Z 0212/0312 30005KT P6SM FEW130
     FM021500 24006KT P6SM SCT250
     FM021900 19012KT P6SM FEW060 SCT250
     FM030200 20008KT P6SM SCT250=



000
FTUS41 KOKX 021121
TAFTEB
TAF
KTEB 021121Z 0212/0312 VRB04KT P6SM FEW130
     FM021500 24005KT P6SM SCT250
     FM021800 21010KT P6SM FEW060 SCT250
     FM030200 20006KT P6SM SCT250=



000
FTUS41 KOKX 021121
TAFEWR
TAF
KEWR 021121Z 0212/0318 VRB04KT P6SM FEW130
     FM021500 25006KT P6SM SCT250
     FM021800 22010G16KT P6SM FEW060 SCT250
     FM022300 16011KT P6SM SCT250
     FM030300 20006KT P6SM SCT250
     FM031600 22010KT P6SM SCT250=



000
FTUS41 KOKX 021121
TAFGON
TAF
KGON 021121Z 0212/0312 VRB03KT P6SM SKC
     FM021400 23006KT P6SM SCT250
     FM021600 21010KT P6SM FEW060 SCT250
     FM030000 20004KT P6SM SCT250
     FM030700 21005KT P6SM SCT010 SCT250=



000
FTUS41 KOKX 021121
TAFJFK
TAF
KJFK 021121Z 0212/0318 30005KT P6SM FEW130
     FM021500 22007KT P6SM SCT250
     FM021800 18010KT P6SM FEW060 SCT250
     FM022000 18014KT P6SM SCT250
     FM030000 18010KT P6SM SCT250
     FM031600 18014KT P6SM SCT250=



000
FTUS41 KOKX 021121
TAFSWF
TAF
KSWF 021121Z 0212/0318 VRB03KT P6SM FEW060
     FM021500 25005KT P6SM SCT250
     FM021800 23010KT P6SM FEW060 SCT250
     FM030000 23004KT P6SM SCT250
     FM031600 24010KT P6SM SCT250
      AMD NOT SKED=



000
FTUS41 KOKX 021121
TAFISP
TAF
KISP 021121Z 0212/0312 VRB03KT P6SM SKC
     FM021400 23006KT P6SM SCT250
     FM021800 21012KT P6SM FEW060 SCT250
     FM030200 20006KT P6SM SCT250
     FM030800 21005KT P6SM SCT020 SCT250=



000
FTUS41 KOKX 021121
TAFGON
TAF
KGON 021121Z 0212/0312 VRB03KT P6SM SKC
     FM021400 23006KT P6SM SCT250
     FM021600 21010KT P6SM FEW060 SCT250
     FM030000 20004KT P6SM SCT250
     FM030700 21005KT P6SM SCT010 SCT250=



000
FTUS41 KOKX 021121
TAFLGA
TAF
KLGA 021121Z 0212/0312 30005KT P6SM FEW130
     FM021500 24006KT P6SM SCT250
     FM021900 19012KT P6SM FEW060 SCT250
     FM030200 20008KT P6SM SCT250=



000
FTUS41 KOKX 021121
TAFSWF
TAF
KSWF 021121Z 0212/0318 VRB03KT P6SM FEW060
     FM021500 25005KT P6SM SCT250
     FM021800 23010KT P6SM FEW060 SCT250
     FM030000 23004KT P6SM SCT250
     FM031600 24010KT P6SM SCT250
      AMD NOT SKED=



000
FTUS41 KOKX 021121
TAFISP
TAF
KISP 021121Z 0212/0312 VRB03KT P6SM SKC
     FM021400 23006KT P6SM SCT250
     FM021800 21012KT P6SM FEW060 SCT250
     FM030200 20006KT P6SM SCT250
     FM030800 21005KT P6SM SCT020 SCT250=



000
FTUS41 KOKX 021121
TAFBDR
TAF
KBDR 021121Z 0212/0312 VRB03KT P6SM FEW130
     FM021400 23006KT P6SM SCT250
     FM021700 21010KT P6SM FEW060 SCT250
     FM030200 21006KT P6SM SCT250
     FM030800 21005KT P6SM SCT020 SCT250=



000
FTUS41 KOKX 020833 AAA
TAFJFK
TAF AMD
KJFK 020833Z 0209/0312 30005KT P6SM FEW130
     FM021500 22007KT P6SM SCT250
     FM021800 18010KT P6SM FEW060 SCT250
     FM022000 18014KT P6SM SCT250
     FM030000 18010KT P6SM SCT250=



000
FTUS41 KOKX 020833 AAA
TAFISP
TAF AMD
KISP 020833Z 0209/0306 VRB03KT P6SM SKC
     FM021400 23006KT P6SM SCT250
     FM021800 21012KT P6SM FEW060 SCT250
     FM030200 20005KT P6SM SCT250=



000
FTUS41 KOKX 020833 AAA
TAFEWR
TAF AMD
KEWR 020833Z 0209/0312 VRB04KT P6SM FEW130
     FM021500 25006KT P6SM SCT250
     FM021800 22010G16KT P6SM FEW060 SCT250
     FM022300 16011KT P6SM SCT250
     FM030300 20006KT P6SM SCT250=



000
FTUS41 KOKX 020833 AAA
TAFTEB
TAF AMD
KTEB 020833Z 0209/0306 VRB04KT P6SM FEW130
     FM021500 24005KT P6SM SCT250
     FM021800 21010KT P6SM FEW060 SCT250
     FM030200 20006KT P6SM SCT250=



000
FTUS41 KOKX 020833 AAA
TAFGON
TAF AMD
KGON 020833Z 0209/0306 VRB03KT P6SM SKC
     FM021400 23006KT P6SM SCT250
     FM021600 21010KT P6SM FEW060 SCT250
     FM030000 20004KT P6SM SCT250=



000
FTUS41 KOKX 020833 AAA
TAFBDR
TAF AMD
KBDR 020833Z 0209/0306 VRB03KT P6SM FEW130
     FM021400 23006KT P6SM SCT250
     FM021700 21010KT P6SM FEW060 SCT250
     FM030200 21006KT P6SM SCT250=



000
FTUS41 KOKX 020833 AAA
TAFLGA
TAF AMD
KLGA 020833Z 0209/0306 30005KT P6SM FEW130
     FM021500 24006KT P6SM SCT250
     FM021900 19012KT P6SM FEW060 SCT250
     FM030200 20008KT P6SM SCT250=



000
FTUS41 KOKX 020833 AAA
TAFSWF
TAF AMD
KSWF 020833Z 0209/0312 VRB03KT P6SM FEW060
     FM021500 25005KT P6SM SCT250
     FM021800 23010KT P6SM FEW060 SCT250
     FM030000 23004KT P6SM SCT250
      AMD NOT SKED=



000
FTUS41 KOKX 020528
TAFISP
TAF
KISP 020528Z 0206/0306 VRB03KT P6SM SKC
     FM021400 23006KT P6SM SCT250
     FM021800 21012KT P6SM FEW060 SCT250
     FM030200 20005KT P6SM SCT250=



000
FTUS41 KOKX 020528
TAFJFK
TAF
KJFK 020528Z 0206/0312 30005KT P6SM SCT130
     FM021500 22007KT P6SM SCT250
     FM021800 18010KT P6SM FEW060 SCT250
     FM022000 18014KT P6SM SCT250
     FM030000 18010KT P6SM SCT250=



000
FTUS41 KOKX 020528
TAFLGA
TAF
KLGA 020528Z 0206/0306 30005KT P6SM SCT130
     FM021500 24006KT P6SM SCT250
     FM021900 19012KT P6SM FEW060 SCT250
     FM030200 20008KT P6SM SCT250=



000
FTUS41 KOKX 020528
TAFSWF
TAF
KSWF 020528Z 0206/0312 VRB03KT P6SM FEW060
     FM021500 25005KT P6SM SCT250
     FM021800 23010KT P6SM FEW060 SCT250
     FM030000 23004KT P6SM SCT250
      AMD NOT SKED=



000
FTUS41 KOKX 020528
TAFTEB
TAF
KTEB 020528Z 0206/0306 VRB04KT P6SM SCT130
     FM021500 24005KT P6SM SCT250
     FM021800 21010KT P6SM FEW060 SCT250
     FM030200 20006KT P6SM SCT250=



000
FTUS41 KOKX 020528
TAFGON
TAF
KGON 020528Z 0206/0306 VRB03KT P6SM SKC
     FM021400 23006KT P6SM SCT250
     FM021600 21010KT P6SM FEW060 SCT250
     FM030000 20004KT P6SM SCT250=



000
FTUS41 KOKX 020528
TAFEWR
TAF
KEWR 020528Z 0206/0312 VRB04KT P6SM SCT130
     FM021500 25006KT P6SM SCT250
     FM021800 22010G16KT P6SM FEW060 SCT250
     FM022300 16011KT P6SM SCT250
     FM030300 20006KT P6SM SCT250=



000
FTUS41 KOKX 020528
TAFISP
TAF
KISP 020528Z 0206/0306 VRB03KT P6SM SKC
     FM021400 23006KT P6SM SCT250
     FM021800 21012KT P6SM FEW060 SCT250
     FM030200 20005KT P6SM SCT250=



000
FTUS41 KOKX 020528
TAFSWF
TAF
KSWF 020528Z 0206/0312 VRB03KT P6SM FEW060
     FM021500 25005KT P6SM SCT250
     FM021800 23010KT P6SM FEW060 SCT250
     FM030000 23004KT P6SM SCT250
      AMD NOT SKED=



000
FTUS41 KOKX 020528
TAFTEB
TAF
KTEB 020528Z 0206/0306 VRB04KT P6SM SCT130
     FM021500 24005KT P6SM SCT250
     FM021800 21010KT P6SM FEW060 SCT250
     FM030200 20006KT P6SM SCT250=



000
FTUS41 KOKX 020528
TAFBDR
TAF
KBDR 020528Z 0206/0306 VRB03KT P6SM SCT130
     FM021400 23006KT P6SM SCT250
     FM021700 21010KT P6SM FEW060 SCT250
     FM030200 21006KT P6SM SCT250=



000
FTUS41 KOKX 020528
TAFLGA
TAF
KLGA 020528Z 0206/0306 30005KT P6SM SCT130
     FM021500 24006KT P6SM SCT250
     FM021900 19012KT P6SM FEW060 SCT250
     FM030200 20008KT P6SM SCT250=



000
FTUS41 KOKX 020528
TAFEWR
TAF
KEWR 020528Z 0206/0312 VRB04KT P6SM SCT130
     FM021500 25006KT P6SM SCT250
     FM021800 22010G16KT P6SM FEW060 SCT250
     FM022300 16011KT P6SM SCT250
     FM030300 20006KT P6SM SCT250=



000
FTUS41 KOKX 020528
TAFJFK
TAF
KJFK 020528Z 0206/0312 30005KT P6SM SCT130
     FM021500 22007KT P6SM SCT250
     FM021800 18010KT P6SM FEW060 SCT250
     FM022000 18014KT P6SM SCT250
     FM030000 18010KT P6SM SCT250=



000
FTUS41 KOKX 020528
TAFGON
TAF
KGON 020528Z 0206/0306 VRB03KT P6SM SKC
     FM021400 23006KT P6SM SCT250
     FM021600 21010KT P6SM FEW060 SCT250
     FM030000 20004KT P6SM SCT250=



000
FTUS41 KOKX 020528
TAFBDR
TAF
KBDR 020528Z 0206/0306 VRB03KT P6SM SCT130
     FM021400 23006KT P6SM SCT250
     FM021700 21010KT P6SM FEW060 SCT250
     FM030200 21006KT P6SM SCT250=



000
FTUS41 KOKX 020307 AAA
TAFLGA
TAF AMD
KLGA 020307Z 0203/0224 30005KT P6SM SKC
     FM021500 24006KT P6SM SCT250
     FM021900 19012KT P6SM FEW060 SCT250=



000
FTUS41 KOKX 020307 AAB
TAFGON
TAF AMD
KGON 020307Z 0203/0224 VRB03KT P6SM SKC
     FM021400 23006KT P6SM SCT250
     FM021600 21010KT P6SM FEW060 SCT250=



000
FTUS41 KOKX 020307 AAA
TAFBDR
TAF AMD
KBDR 020307Z 0203/0224 VRB03KT P6SM SKC
     FM021400 23006KT P6SM SCT250
     FM021700 21010KT P6SM FEW060 SCT250=



000
FTUS41 KOKX 020307 AAA
TAFISP
TAF AMD
KISP 020307Z 0203/0224 32004KT P6SM SKC
     FM020500 VRB03KT P6SM SKC
     FM021400 23006KT P6SM SCT250
     FM021800 21012KT P6SM FEW060 SCT250=



000
FTUS41 KOKX 020307 AAA
TAFEWR
TAF AMD
KEWR 020307Z 0203/0306 30005KT P6SM SKC
     FM020600 VRB04KT P6SM SKC
     FM021500 25006KT P6SM SCT250
     FM021800 22010G16KT P6SM FEW060 SCT250
     FM022300 16011KT P6SM SCT250=



000
FTUS41 KOKX 020307 AAA
TAFJFK
TAF AMD
KJFK 020307Z 0203/0306 30005KT P6SM SKC
     FM021500 22007KT P6SM SCT250
     FM021800 18010KT P6SM FEW060 SCT250
     FM022000 18014KT P6SM SCT250
     FM030000 18010KT P6SM SCT250=



000
FTUS41 KOKX 020307 AAA
TAFTEB
TAF AMD
KTEB 020307Z 0203/0224 VRB04KT P6SM SKC
     FM021500 24005KT P6SM SCT250
     FM021800 21010KT P6SM FEW060 SCT250=



000
FTUS41 KOKX 020307 AAA
TAFSWF
TAF AMD
KSWF 020307Z 0203/0306 VRB03KT P6SM FEW060
     FM021500 25005KT P6SM SCT250
     FM021800 23010KT P6SM FEW060 SCT250
     FM030000 23004KT P6SM SCT250
      AMD NOT SKED=



000
FTUS41 KOKX 020307 AAA
TAFLGA
TAF AMD
KLGA 020307Z 0203/0224 30005KT P6SM SKC
     FM021500 24006KT P6SM SCT250
     FM021900 19012KT P6SM FEW060 SCT250=



000
FTUS41 KOKX 020307 AAA
TAFJFK
TAF AMD
KJFK 020307Z 0203/0306 30005KT P6SM SKC
     FM021500 22007KT P6SM SCT250
     FM021800 18010KT P6SM FEW060 SCT250
     FM022000 18014KT P6SM SCT250
     FM030000 18010KT P6SM SCT250=



000
FTUS41 KOKX 020307 AAA
TAFTEB
TAF AMD
KTEB 020307Z 0203/0224 VRB04KT P6SM SKC
     FM021500 24005KT P6SM SCT250
     FM021800 21010KT P6SM FEW060 SCT250=



000
FTUS41 KOKX 020307 AAA
TAFISP
TAF AMD
KISP 020307Z 0203/0224 32004KT P6SM SKC
     FM020500 VRB03KT P6SM SKC
     FM021400 23006KT P6SM SCT250
     FM021800 21012KT P6SM FEW060 SCT250=



000
FTUS41 KOKX 020307 AAA
TAFBDR
TAF AMD
KBDR 020307Z 0203/0224 VRB03KT P6SM SKC
     FM021400 23006KT P6SM SCT250
     FM021700 21010KT P6SM FEW060 SCT250=



000
FTUS41 KOKX 020307 AAA
TAFEWR
TAF AMD
KEWR 020307Z 0203/0306 30005KT P6SM SKC
     FM020600 VRB04KT P6SM SKC
     FM021500 25006KT P6SM SCT250
     FM021800 22010G16KT P6SM FEW060 SCT250
     FM022300 16011KT P6SM SCT250=



000
FTUS41 KOKX 020307 AAA
TAFSWF
TAF AMD
KSWF 020307Z 0203/0306 VRB03KT P6SM FEW060
     FM021500 25005KT P6SM SCT250
     FM021800 23010KT P6SM FEW060 SCT250
     FM030000 23004KT P6SM SCT250
      AMD NOT SKED=



000
FTUS41 KOKX 020307 AAB
TAFGON
TAF AMD
KGON 020307Z 0203/0224 VRB03KT P6SM SKC
     FM021400 23006KT P6SM SCT250
     FM021600 21010KT P6SM FEW060 SCT250=



000
FTUS41 KOKX 020123 AAA
TAFGON
TAF AMD
KGON 020123Z 0201/0224 VRB03KT P6SM SKC
     FM021400 23006KT P6SM SCT250
     FM021600 21010KT P6SM FEW060 SCT250=



000
FTUS41 KOKX 012332
TAFEWR
TAF
KEWR 012332Z 0200/0306 30010KT P6SM FEW060
      TEMPO 0200/0201 30010G16KT
     FM020300 32005KT P6SM SKC
     FM020600 VRB04KT P6SM SKC
     FM021500 25006KT P6SM SCT250
     FM021800 22010G16KT P6SM FEW060 SCT250
     FM022300 16011KT P6SM SCT250=



000
FTUS41 KOKX 012332
TAFBDR
TAF
KBDR 012332Z 0200/0224 30012KT P6SM SCT060 SCT100
     FM020100 32004KT P6SM SKC
     FM020400 VRB03KT P6SM SKC
     FM021400 23006KT P6SM SCT250
     FM021700 21010KT P6SM FEW060 SCT250=



000
FTUS41 KOKX 012332
TAFGON
TAF
KGON 012332Z 0200/0224 30008KT P6SM SCT060 SCT100
     FM020100 32004KT P6SM SKC
     FM020400 VRB03KT P6SM SKC
     FM021400 23006KT P6SM SCT250
     FM021600 21010KT P6SM FEW060 SCT250=



000
FTUS41 KOKX 012332
TAFSWF
TAF
KSWF 012332Z 0200/0306 29008KT P6SM FEW060
     FM020100 VRB03KT P6SM FEW060
     FM021500 25005KT P6SM SCT250
     FM021800 23010KT P6SM FEW060 SCT250
     FM030000 23004KT P6SM SCT250
      AMD NOT SKED=



000
FTUS41 KOKX 012332
TAFLGA
TAF
KLGA 012332Z 0200/0224 30010KT P6SM FEW060
      TEMPO 0200/0202 30012G18KT
     FM020300 32005KT P6SM SKC
     FM021500 24006KT P6SM SCT250
     FM021900 19012KT P6SM FEW060 SCT250=



000
FTUS41 KOKX 012332
TAFJFK
TAF
KJFK 012332Z 0200/0306 30012KT P6SM FEW060
      TEMPO 0200/0202 30012G18KT
     FM020300 32005KT P6SM SKC
     FM021500 22007KT P6SM SCT250
     FM021800 18010KT P6SM FEW060 SCT250
     FM022000 18014KT P6SM SCT250
     FM030000 18010KT P6SM SCT250=



000
FTUS41 KOKX 012332
TAFTEB
TAF
KTEB 012332Z 0200/0224 30010KT P6SM FEW060
     FM020200 32004KT P6SM SKC
     FM020500 VRB04KT P6SM SKC
     FM021500 24005KT P6SM SCT250
     FM021800 21010KT P6SM FEW060 SCT250=



000
FTUS41 KOKX 012332
TAFISP
TAF
KISP 012332Z 0200/0224 30010KT P6SM FEW060
     FM020200 32004KT P6SM SKC
     FM020500 VRB03KT P6SM SKC
     FM021400 23006KT P6SM SCT250
     FM021800 21012KT P6SM FEW060 SCT250=



000
FTUS41 KOKX 012303 AAB
TAFISP
TAF AMD
KISP 012303Z 0123/0218 30010KT P6SM FEW060
     FM020200 32004KT P6SM SKC
     FM020500 VRB03KT P6SM SKC
     FM021500 23006KT P6SM SCT250=



000
FTUS41 KOKX 012302 AAB
TAFJFK
TAF AMD
KJFK 012302Z 0123/0224 30012G18KT P6SM FEW060
     FM020300 32005KT P6SM SKC
     FM021500 22007KT P6SM SCT250
     FM021800 18010KT P6SM SCT250
     FM022000 18013KT P6SM SCT250=



000
FTUS41 KOKX 012211 AAB
TAFGON
TAF AMD
KGON 012211Z 0122/0218 30008KT P6SM SCT060 SCT100
     FM020100 32004KT P6SM SKC
     FM020400 VRB03KT P6SM SKC
     FM021500 21006KT P6SM SCT250=



000
FTUS41 KOKX 012210 AAB
TAFBDR
TAF AMD
KBDR 012210Z 0122/0218 30012KT P6SM SCT060 SCT100
     FM020100 32004KT P6SM SKC
     FM020400 VRB03KT P6SM SKC
     FM021500 22006KT P6SM SCT250=



000
FTUS41 KOKX 012209 AAB
TAFLGA
TAF AMD
KLGA 012209Z 0122/0218 30014G20KT P6SM SCT060 SCT100
     FM012300 29010KT P6SM FEW060
     FM020300 32005KT P6SM SKC
     FM021600 24006KT P6SM SCT250=



000
FTUS41 KOKX 011936 AAA
TAFISP
TAF AMD
KISP 011936Z 0120/0218 24012G19KT P6SM SCT060 SCT100
     FM012300 25009KT P6SM FEW060
     FM020200 32004KT P6SM SKC
     FM020500 VRB03KT P6SM SKC
     FM021500 23006KT P6SM SCT250=



000
FTUS41 KOKX 011936 AAA
TAFJFK
TAF AMD
KJFK 011936Z 0120/0224 24015G21KT P6SM SCT060 SCT100
     FM012300 27012KT P6SM FEW060
     FM020300 32005KT P6SM SKC
     FM021500 22007KT P6SM SCT250
     FM021800 18010KT P6SM SCT250
     FM022000 18013KT P6SM SCT250=



000
FTUS41 KOKX 011936 AAA
TAFLGA
TAF AMD
KLGA 011936Z 0120/0218 26013G20KT P6SM SCT060 SCT100
     FM012300 29010KT P6SM FEW060
     FM020300 32005KT P6SM SKC
     FM021600 24006KT P6SM SCT250=



000
FTUS41 KOKX 011936 AAA
TAFTEB
TAF AMD
KTEB 011936Z 0120/0218 27010G17KT P6SM SCT060 SCT100
     FM012300 30009KT P6SM FEW060
     FM020200 32004KT P6SM SKC
     FM020500 VRB04KT P6SM SKC
     FM021500 24005KT P6SM SCT250=



000
FTUS41 KOKX 011936 AAA
TAFSWF
TAF AMD
KSWF 011936Z 0120/0224 29013G19KT P6SM SCT050 SCT100
     FM012300 29008KT P6SM FEW060
     FM020100 VRB03KT P6SM FEW060
     FM021500 25005KT P6SM SCT250
     FM021800 23010KT P6SM SCT250
      AMD NOT SKED=



000
FTUS41 KOKX 011936 AAA
TAFGON
TAF AMD
KGON 011936Z 0120/0218 24012KT P6SM SCT060 SCT100
     FM012300 26008KT P6SM FEW060
     FM020100 32004KT P6SM SKC
     FM020400 VRB03KT P6SM SKC
     FM021500 21006KT P6SM SCT250=



000
FTUS41 KOKX 011936 AAA
TAFEWR
TAF AMD
KEWR 011936Z 0120/0224 27014G21KT P6SM SCT060 SCT100
     FM012300 30011KT P6SM FEW060
     FM020300 32005KT P6SM SKC
     FM020600 VRB04KT P6SM SKC
     FM021500 25006KT P6SM SCT250
     FM021800 22010KT P6SM SCT250
     FM022200 16011KT P6SM SCT250=



000
FTUS41 KOKX 011936 AAA
TAFBDR
TAF AMD
KBDR 011936Z 0120/0218 23012KT P6SM SCT060 SCT100
     FM012200 26008KT P6SM FEW060
     FM020100 32004KT P6SM SKC
     FM020400 VRB03KT P6SM SKC
     FM021500 22006KT P6SM SCT250=



000
FTUS41 KOKX 011936 AAA
TAFISP
TAF AMD
KISP 011936Z 0120/0218 24012G19KT P6SM SCT060 SCT100
     FM012300 25009KT P6SM FEW060
     FM020200 32004KT P6SM SKC
     FM020500 VRB03KT P6SM SKC
     FM021500 23006KT P6SM SCT250=



000
FTUS41 KOKX 011936 AAA
TAFEWR
TAF AMD
KEWR 011936Z 0120/0224 27014G21KT P6SM SCT060 SCT100
     FM012300 30011KT P6SM FEW060
     FM020300 32005KT P6SM SKC
     FM020600 VRB04KT P6SM SKC
     FM021500 25006KT P6SM SCT250
     FM021800 22010KT P6SM SCT250
     FM022200 16011KT P6SM SCT250=



000
FTUS41 KOKX 011936 AAA
TAFJFK
TAF AMD
KJFK 011936Z 0120/0224 24015G21KT P6SM SCT060 SCT100
     FM012300 27012KT P6SM FEW060
     FM020300 32005KT P6SM SKC
     FM021500 22007KT P6SM SCT250
     FM021800 18010KT P6SM SCT250
     FM022000 18013KT P6SM SCT250=



000
FTUS41 KOKX 011936 AAA
TAFGON
TAF AMD
KGON 011936Z 0120/0218 24012KT P6SM SCT060 SCT100
     FM012300 26008KT P6SM FEW060
     FM020100 32004KT P6SM SKC
     FM020400 VRB03KT P6SM SKC
     FM021500 21006KT P6SM SCT250=



000
FTUS41 KOKX 011936 AAA
TAFTEB
TAF AMD
KTEB 011936Z 0120/0218 27010G17KT P6SM SCT060 SCT100
     FM012300 30009KT P6SM FEW060
     FM020200 32004KT P6SM SKC
     FM020500 VRB04KT P6SM SKC
     FM021500 24005KT P6SM SCT250=



000
FTUS41 KOKX 011936 AAA
TAFLGA
TAF AMD
KLGA 011936Z 0120/0218 26013G20KT P6SM SCT060 SCT100
     FM012300 29010KT P6SM FEW060
     FM020300 32005KT P6SM SKC
     FM021600 24006KT P6SM SCT250=



000
FTUS41 KOKX 011936 AAA
TAFBDR
TAF AMD
KBDR 011936Z 0120/0218 23012KT P6SM SCT060 SCT100
     FM012200 26008KT P6SM FEW060
     FM020100 32004KT P6SM SKC
     FM020400 VRB03KT P6SM SKC
     FM021500 22006KT P6SM SCT250=



000
FTUS41 KOKX 011936 AAA
TAFSWF
TAF AMD
KSWF 011936Z 0120/0224 29013G19KT P6SM SCT050 SCT100
     FM012300 29008KT P6SM FEW060
     FM020100 VRB03KT P6SM FEW060
     FM021500 25005KT P6SM SCT250
     FM021800 23010KT P6SM SCT250
      AMD NOT SKED=



000
FTUS41 KOKX 011727
TAFJFK
TAF
KJFK 011727Z 0118/0224 24015G21KT P6SM SCT060 SCT100
     FM012300 27012KT P6SM FEW060
     FM020300 32005KT P6SM SKC
     FM021500 22007KT P6SM SCT250
     FM021800 18010KT P6SM SCT250
     FM022000 18013KT P6SM SCT250=



000
FTUS41 KOKX 011727
TAFBDR
TAF
KBDR 011727Z 0118/0218 23012G18KT P6SM SCT060 SCT100
     FM012200 26008KT P6SM FEW060
     FM020100 32004KT P6SM SKC
     FM020400 VRB03KT P6SM SKC
     FM021500 22006KT P6SM SCT250=



000
FTUS41 KOKX 011727
TAFISP
TAF
KISP 011727Z 0118/0218 22012G19KT P6SM SCT060 SCT100
     FM012300 25009KT P6SM FEW060
     FM020200 32004KT P6SM SKC
     FM020500 VRB03KT P6SM SKC
     FM021500 23006KT P6SM SCT250=



000
FTUS41 KOKX 011727
TAFTEB
TAF
KTEB 011727Z 0118/0218 27010G17KT P6SM SCT060 SCT100
     FM012300 30009KT P6SM FEW060
     FM020200 32004KT P6SM SKC
     FM020500 VRB04KT P6SM SKC
     FM021500 24005KT P6SM SCT250=



000
FTUS41 KOKX 011727
TAFJFK
TAF
KJFK 011727Z 0118/0224 24015G21KT P6SM SCT060 SCT100
     FM012300 27012KT P6SM FEW060
     FM020300 32005KT P6SM SKC
     FM021500 22007KT P6SM SCT250
     FM021800 18010KT P6SM SCT250
     FM022000 18013KT P6SM SCT250=



000
FTUS41 KOKX 011727
TAFBDR
TAF
KBDR 011727Z 0118/0218 23012G18KT P6SM SCT060 SCT100
     FM012200 26008KT P6SM FEW060
     FM020100 32004KT P6SM SKC
     FM020400 VRB03KT P6SM SKC
     FM021500 22006KT P6SM SCT250=



000
FTUS41 KOKX 011727
TAFISP
TAF
KISP 011727Z 0118/0218 22012G19KT P6SM SCT060 SCT100
     FM012300 25009KT P6SM FEW060
     FM020200 32004KT P6SM SKC
     FM020500 VRB03KT P6SM SKC
     FM021500 23006KT P6SM SCT250=



000
FTUS41 KOKX 011727
TAFTEB
TAF
KTEB 011727Z 0118/0218 27010G17KT P6SM SCT060 SCT100
     FM012300 30009KT P6SM FEW060
     FM020200 32004KT P6SM SKC
     FM020500 VRB04KT P6SM SKC
     FM021500 24005KT P6SM SCT250=



000
FTUS41 KOKX 011727
TAFEWR
TAF
KEWR 011727Z 0118/0224 27014G21KT P6SM SCT060 SCT100
     FM012300 30011KT P6SM FEW060
     FM020300 32005KT P6SM SKC
     FM020600 VRB04KT P6SM SKC
     FM021500 25006KT P6SM SCT250
     FM021800 22010KT P6SM SCT250
     FM022200 16011KT P6SM SCT250=



000
FTUS41 KOKX 011727
TAFGON
TAF
KGON 011727Z 0118/0218 22010G17KT P6SM SCT060 SCT100
     FM012300 26008KT P6SM FEW060
     FM020100 32004KT P6SM SKC
     FM020400 VRB03KT P6SM SKC
     FM021500 21006KT P6SM SCT250=



000
FTUS41 KOKX 011727
TAFLGA
TAF
KLGA 011727Z 0118/0218 26013G21KT P6SM SCT060 SCT100
     FM012300 29010KT P6SM FEW060
     FM020300 32005KT P6SM SKC
     FM021600 24006KT P6SM SCT250=



000
FTUS41 KOKX 011727
TAFSWF
TAF
KSWF 011727Z 0118/0224 29013G19KT P6SM SCT050 SCT100
     FM012200 29008KT P6SM FEW060
     FM020100 VRB03KT P6SM FEW060
     FM021500 25005KT P6SM SCT250
     FM021800 23010KT P6SM SCT250
      AMD NOT SKED=



000
FTUS41 KOKX 011727
TAFEWR
TAF
KEWR 011727Z 0118/0224 27014G21KT P6SM SCT060 SCT100
     FM012300 30011KT P6SM FEW060
     FM020300 32005KT P6SM SKC
     FM020600 VRB04KT P6SM SKC
     FM021500 25006KT P6SM SCT250
     FM021800 22010KT P6SM SCT250
     FM022200 16011KT P6SM SCT250=



000
FTUS41 KOKX 011727
TAFGON
TAF
KGON 011727Z 0118/0218 22010G17KT P6SM SCT060 SCT100
     FM012300 26008KT P6SM FEW060
     FM020100 32004KT P6SM SKC
     FM020400 VRB03KT P6SM SKC
     FM021500 21006KT P6SM SCT250=



000
FTUS41 KOKX 011727
TAFLGA
TAF
KLGA 011727Z 0118/0218 26013G21KT P6SM SCT060 SCT100
     FM012300 29010KT P6SM FEW060
     FM020300 32005KT P6SM SKC
     FM021600 24006KT P6SM SCT250=



000
FTUS41 KOKX 011727
TAFSWF
TAF
KSWF 011727Z 0118/0224 29013G19KT P6SM SCT050 SCT100
     FM012200 29008KT P6SM FEW060
     FM020100 VRB03KT P6SM FEW060
     FM021500 25005KT P6SM SCT250
     FM021800 23010KT P6SM SCT250
      AMD NOT SKED=



000
FTUS41 KOKX 011414 AAA
TAFSWF
TAF AMD
KSWF 011414Z 0114/0218 28010KT P6SM SCT040 SCT100
     FM011600 28012G18KT P6SM SCT050 BKN100
     FM012200 29008KT P6SM SCT050
     FM020100 VRB03KT P6SM FEW050
     FM021600 25005KT P6SM SCT250
      AMD NOT SKED=



000
FTUS41 KOKX 011414 AAA
TAFGON
TAF AMD
KGON 011414Z 0114/0212 24010KT P6SM FEW050 SCT100
     FM011800 23010G17KT P6SM SCT060 BKN100
     FM020000 VRB04KT P6SM SCT060=



000
FTUS41 KOKX 011411 AAA
TAFISP
TAF AMD
KISP 011411Z 0114/0212 23010KT P6SM FEW050 BKN100
     FM011600 24010G16KT P6SM FEW060 BKN100
     FM011800 24013G20KT P6SM SCT060 SCT100
     FM012300 25009KT P6SM SCT060
     FM020300 VRB04KT P6SM SKC=



000
FTUS41 KOKX 011411 AAA
TAFBDR
TAF AMD
KBDR 011411Z 0114/0212 23010KT P6SM FEW060 BKN100
     FM011600 24010G16KT P6SM FEW060 BKN100
     FM011800 24012G18KT P6SM SCT060 SCT100
     FM012200 26008KT P6SM SCT060
     FM020200 VRB04KT P6SM SKC=



000
FTUS41 KOKX 011405 AAA
TAFJFK
TAF AMD
KJFK 011405Z 0114/0218 24011KT P6SM BKN100
     FM011600 23011G17KT P6SM FEW060 BKN100
     FM011800 24014G22KT P6SM SCT060 SCT100
     FM020000 28012KT P6SM FEW060
     FM020500 32005KT P6SM SKC
     FM021600 21008KT P6SM SCT250=



000
FTUS41 KOKX 011405 AAA
TAFEWR
TAF AMD
KEWR 011405Z 0114/0218 26010KT P6SM BKN100
     FM011600 26012G19KT P6SM FEW060 BKN100
     FM011800 27014G22KT P6SM SCT060
     FM012300 30010KT P6SM FEW060
     FM020300 30006KT P6SM SKC
     FM021600 24008KT P6SM SCT250=



000
FTUS41 KOKX 011405 AAA
TAFTEB
TAF AMD
KTEB 011405Z 0114/0212 28010KT P6SM BKN100
     FM011600 26010G17KT P6SM FEW060 BKN100
     FM011800 26013G20KT P6SM SCT060
     FM012300 29009KT P6SM FEW060
     FM020300 30003KT P6SM SKC=



000
FTUS41 KOKX 011405 AAA
TAFLGA
TAF AMD
KLGA 011405Z 0114/0212 26011KT P6SM BKN100
     FM011600 26010G17KT P6SM FEW060 BKN100
     FM011800 26012G21KT P6SM SCT070 SCT100
     FM020000 29010KT P6SM FEW060
     FM020500 32005KT P6SM SKC=



000
FTUS41 KOKX 011405 AAA
TAFEWR
TAF AMD
KEWR 011405Z 0114/0218 26010KT P6SM BKN100
     FM011600 26012G19KT P6SM FEW060 BKN100
     FM011800 27014G22KT P6SM SCT060
     FM012300 30010KT P6SM FEW060
     FM020300 30006KT P6SM SKC
     FM021600 24008KT P6SM SCT250=



000
FTUS41 KOKX 011405 AAA
TAFLGA
TAF AMD
KLGA 011405Z 0114/0212 26011KT P6SM BKN100
     FM011600 26010G17KT P6SM FEW060 BKN100
     FM011800 26012G21KT P6SM SCT070 SCT100
     FM020000 29010KT P6SM FEW060
     FM020500 32005KT P6SM SKC=



000
FTUS41 KOKX 011405 AAA
TAFJFK
TAF AMD
KJFK 011405Z 0114/0218 24011KT P6SM BKN100
     FM011600 23011G17KT P6SM FEW060 BKN100
     FM011800 24014G22KT P6SM SCT060 SCT100
     FM020000 28012KT P6SM FEW060
     FM020500 32005KT P6SM SKC
     FM021600 21008KT P6SM SCT250=



000
FTUS41 KOKX 011405 AAA
TAFTEB
TAF AMD
KTEB 011405Z 0114/0212 28010KT P6SM BKN100
     FM011600 26010G17KT P6SM FEW060 BKN100
     FM011800 26013G20KT P6SM SCT060
     FM012300 29009KT P6SM FEW060
     FM020300 30003KT P6SM SKC=



000
FTUS41 KOKX 011123
TAFEWR
TAF
KEWR 011123Z 0112/0218 24005KT P6SM SCT100
     FM011500 26010KT P6SM SCT100
     FM011800 27014G21KT P6SM SCT060
     FM012300 30010KT P6SM FEW060
     FM020300 30006KT P6SM SKC
     FM021600 24008KT P6SM SCT250=



000
FTUS41 KOKX 011123
TAFTEB
TAF
KTEB 011123Z 0112/0212 VRB03KT P6SM SCT100
     FM011400 26007KT P6SM SCT100
     FM011600 26012G18KT P6SM SCT060
     FM020000 29008KT P6SM FEW060
     FM020300 30003KT P6SM SKC=



000
FTUS41 KOKX 011123
TAFLGA
TAF
KLGA 011123Z 0112/0212 23006KT P6SM SCT100
     FM011600 26010KT P6SM SCT100
     FM011900 26012G19KT P6SM SCT070
     FM020000 29010KT P6SM FEW060
     FM020500 32005KT P6SM SKC=



000
FTUS41 KOKX 011123
TAFISP
TAF
KISP 011123Z 0112/0212 24004KT P6SM FEW100
     FM011400 25008KT P6SM SCT100
     FM011700 24013G20KT P6SM SCT060
     FM012300 25009KT P6SM SCT060
     FM020300 VRB04KT P6SM SKC=



000
FTUS41 KOKX 011123
TAFJFK
TAF
KJFK 011123Z 0112/0218 24006KT P6SM SCT100
     FM011500 24010KT P6SM SCT100
     FM011900 23014G21KT P6SM SCT060
     FM020000 28012KT P6SM FEW060
     FM020500 32005KT P6SM SKC
     FM021600 21008KT P6SM SCT250=



000
FTUS41 KOKX 011123
TAFBDR
TAF
KBDR 011123Z 0112/0212 VRB03KT P6SM FEW100
     FM011400 24007KT P6SM SCT100
     FM011800 24011KT P6SM SCT060
     FM012200 26007KT P6SM SCT060
     FM020200 VRB04KT P6SM SKC=



000
FTUS41 KOKX 011123
TAFGON
TAF
KGON 011123Z 0112/0212 VRB02KT P6SM SKC
     FM011400 24008KT P6SM SCT100
     FM011800 23010KT P6SM SCT060 SCT150
     FM020000 VRB04KT P6SM SCT060=



000
FTUS41 KOKX 011123
TAFSWF
TAF
KSWF 011123Z 0112/0218 VRB02KT P6SM BKN080
     FM011600 28012G18KT P6SM SCT050 BKN100
     FM012200 29009KT P6SM SCT050
     FM020100 VRB03KT P6SM FEW050
     FM021600 25005KT P6SM SCT250
      AMD NOT SKED=



000
FTUS41 KOKX 011123
TAFLGA
TAF
KLGA 011123Z 0112/0212 23006KT P6SM SCT100
     FM011600 26010KT P6SM SCT100
     FM011900 26012G19KT P6SM SCT070
     FM020000 29010KT P6SM FEW060
     FM020500 32005KT P6SM SKC=



000
FTUS41 KOKX 011123
TAFGON
TAF
KGON 011123Z 0112/0212 VRB02KT P6SM SKC
     FM011400 24008KT P6SM SCT100
     FM011800 23010KT P6SM SCT060 SCT150
     FM020000 VRB04KT P6SM SCT060=



000
FTUS41 KOKX 011123
TAFISP
TAF
KISP 011123Z 0112/0212 24004KT P6SM FEW100
     FM011400 25008KT P6SM SCT100
     FM011700 24013G20KT P6SM SCT060
     FM012300 25009KT P6SM SCT060
     FM020300 VRB04KT P6SM SKC=



000
FTUS41 KOKX 011123
TAFTEB
TAF
KTEB 011123Z 0112/0212 VRB03KT P6SM SCT100
     FM011400 26007KT P6SM SCT100
     FM011600 26012G18KT P6SM SCT060
     FM020000 29008KT P6SM FEW060
     FM020300 30003KT P6SM SKC=



000
FTUS41 KOKX 011123
TAFEWR
TAF
KEWR 011123Z 0112/0218 24005KT P6SM SCT100
     FM011500 26010KT P6SM SCT100
     FM011800 27014G21KT P6SM SCT060
     FM012300 30010KT P6SM FEW060
     FM020300 30006KT P6SM SKC
     FM021600 24008KT P6SM SCT250=



000
FTUS41 KOKX 011123
TAFJFK
TAF
KJFK 011123Z 0112/0218 24006KT P6SM SCT100
     FM011500 24010KT P6SM SCT100
     FM011900 23014G21KT P6SM SCT060
     FM020000 28012KT P6SM FEW060
     FM020500 32005KT P6SM SKC
     FM021600 21008KT P6SM SCT250=



000
FTUS41 KOKX 011123
TAFSWF
TAF
KSWF 011123Z 0112/0218 VRB02KT P6SM BKN080
     FM011600 28012G18KT P6SM SCT050 BKN100
     FM012200 29009KT P6SM SCT050
     FM020100 VRB03KT P6SM FEW050
     FM021600 25005KT P6SM SCT250
      AMD NOT SKED=



000
FTUS41 KOKX 011123
TAFBDR
TAF
KBDR 011123Z 0112/0212 VRB03KT P6SM FEW100
     FM011400 24007KT P6SM SCT100
     FM011800 24011KT P6SM SCT060
     FM012200 26007KT P6SM SCT060
     FM020200 VRB04KT P6SM SKC=



000
FTUS41 KOKX 010830 AAA
TAFLGA
TAF AMD
KLGA 010830Z 0109/0206 25006KT P6SM SKC
     FM011600 26010KT P6SM SCT150
     FM011900 26012G19KT P6SM SCT070
     FM020000 29010KT P6SM FEW060
     FM020500 32005KT P6SM SKC=



000
FTUS41 KOKX 010830 AAA
TAFISP
TAF AMD
KISP 010830Z 0109/0206 24004KT P6SM SKC
     FM011400 25008KT P6SM FEW150
     FM011700 24012G20KT P6SM SCT060
     FM012200 25009KT P6SM SCT060
     FM020300 VRB04KT P6SM SKC=



000
FTUS41 KOKX 010830 AAA
TAFSWF
TAF AMD
KSWF 010830Z 0109/0212 VRB02KT P6SM SCT100
     FM011600 28012G18KT P6SM SCT050 BKN100
     FM012200 29009KT P6SM SCT050
     FM020100 VRB03KT P6SM FEW050
      AMD NOT SKED=



000
FTUS41 KOKX 010830 AAA
TAFJFK
TAF AMD
KJFK 010830Z 0109/0212 24006KT P6SM SKC
     FM011500 24010KT P6SM SCT150
     FM011900 23014G21KT P6SM SCT060
     FM020000 28012KT P6SM FEW060
     FM020500 32005KT P6SM SKC=



000
FTUS41 KOKX 010830 AAA
TAFGON
TAF AMD
KGON 010830Z 0109/0206 VRB02KT P6SM SKC
     FM011300 23008KT P6SM SKC
     FM011600 21010KT P6SM SCT060 SCT150
     FM020000 VRB04KT P6SM SCT060=



000
FTUS41 KOKX 010830 AAA
TAFBDR
TAF AMD
KBDR 010830Z 0109/0206 VRB03KT P6SM SKC
     FM011300 24007KT P6SM FEW150
     FM011800 24011KT P6SM SCT060
     FM012200 26007KT P6SM SCT060
     FM020200 VRB04KT P6SM SKC=



000
FTUS41 KOKX 010830 AAA
TAFEWR
TAF AMD
KEWR 010830Z 0109/0212 24005KT P6SM SKC
     FM011500 26010KT P6SM SCT150
     FM011800 26012G21KT P6SM SCT060
     FM012300 29011KT P6SM FEW060
     FM020300 30006KT P6SM SKC=



000
FTUS41 KOKX 010830 AAA
TAFTEB
TAF AMD
KTEB 010830Z 0109/0206 VRB03KT P6SM SKC
     FM011400 27007KT P6SM SCT150
     FM011600 27012G18KT P6SM SCT060
     FM020000 28008KT P6SM FEW060
     FM020300 28003KT P6SM SKC=



000
FTUS41 KOKX 010532
TAFEWR
TAF
KEWR 010532Z 0106/0212 24005KT P6SM SKC
     FM011500 26010KT P6SM SCT150
     FM011800 26012G21KT P6SM SCT060
     FM012300 29011KT P6SM FEW060
     FM020300 30006KT P6SM SKC=



000
FTUS41 KOKX 010532
TAFBDR
TAF
KBDR 010532Z 0106/0206 VRB03KT P6SM SKC
     FM011300 24007KT P6SM FEW150
     FM011800 24011KT P6SM SCT060
     FM012200 26007KT P6SM SCT060
     FM020200 VRB04KT P6SM SKC=



000
FTUS41 KOKX 010532
TAFTEB
TAF
KTEB 010532Z 0106/0206 VRB03KT P6SM SKC
     FM011400 27007KT P6SM SCT150
     FM011600 27012G18KT P6SM SCT060
     FM020000 28008KT P6SM FEW060
     FM020300 28003KT P6SM SKC=



000
FTUS41 KOKX 010532
TAFSWF
TAF
KSWF 010532Z 0106/0212 VRB02KT P6SM SCT100
     FM011600 28012G18KT P6SM SCT050 BKN100
     FM012200 29009KT P6SM SCT050
     FM020100 VRB03KT P6SM FEW050
      AMD NOT SKED=



000
FTUS41 KOKX 010532
TAFISP
TAF
KISP 010532Z 0106/0206 24004KT P6SM SKC
     FM011400 25008KT P6SM FEW150
     FM011700 24012G20KT P6SM SCT060
     FM012200 25009KT P6SM SCT060
     FM020300 VRB04KT P6SM SKC=



000
FTUS41 KOKX 010532
TAFLGA
TAF
KLGA 010532Z 0106/0206 25006KT P6SM SKC
     FM011600 26010KT P6SM SCT150
     FM011900 26012G19KT P6SM SCT070
     FM020000 29010KT P6SM FEW060
     FM020500 32005KT P6SM SKC=



000
FTUS41 KOKX 010532
TAFJFK
TAF
KJFK 010532Z 0106/0212 24006KT P6SM SKC
     FM011500 24010KT P6SM SCT150
     FM011900 23014G21KT P6SM SCT060
     FM020000 28012KT P6SM FEW060
     FM020500 32005KT P6SM SKC=



000
FTUS41 KOKX 010532
TAFGON
TAF
KGON 010532Z 0106/0206 VRB02KT P6SM SKC
     FM011300 23008KT P6SM SKC
     FM011600 21010KT P6SM SCT060 SCT150
     FM020000 VRB04KT P6SM SCT060=



000
FTUS41 KOKX 010532
TAFGON
TAF
KGON 010532Z 0106/0206 VRB02KT P6SM SKC
     FM011300 23008KT P6SM SKC
     FM011600 21010KT P6SM SCT060 SCT150
     FM020000 VRB04KT P6SM SCT060=



000
FTUS41 KOKX 010237 AAA
TAFISP
TAF AMD
KISP 010237Z 0103/0124 24004KT P6SM SKC
     FM011400 25008KT P6SM FEW150
     FM011700 24012G20KT P6SM SCT060
     FM012200 25009KT P6SM SCT060=



000
FTUS41 KOKX 010237 AAA
TAFBDR
TAF AMD
KBDR 010237Z 0103/0124 VRB03KT P6SM SKC
     FM011300 24007KT P6SM FEW150
     FM011800 24011KT P6SM SCT060=



000
FTUS41 KOKX 010237 AAB
TAFEWR
TAF AMD
KEWR 010237Z 0103/0206 25005KT P6SM SKC
     FM011500 27010KT P6SM SCT150
     FM011800 26012G21KT P6SM SCT060
     FM012300 29011KT P6SM FEW060
     FM020300 30006KT P6SM SKC=



000
FTUS41 KOKX 010237 AAB
TAFJFK
TAF AMD
KJFK 010237Z 0103/0206 25006KT P6SM SKC
     FM011500 24010KT P6SM SCT150
     FM011900 23014G21KT P6SM SCT060
     FM020000 28010KT P6SM FEW060=



000
FTUS41 KOKX 010237 AAA
TAFGON
TAF AMD
KGON 010237Z 0103/0124 VRB02KT P6SM SKC
     FM011300 23008KT P6SM SKC
     FM011600 21009KT P6SM SCT060 SCT150=



000
FTUS41 KOKX 010237 AAA
TAFTEB
TAF AMD
KTEB 010237Z 0103/0124 VRB03KT P6SM SKC
     FM011400 27007KT P6SM SCT150
     FM011600 27012G18KT P6SM SCT060=



000
FTUS41 KOKX 010237 AAA
TAFLGA
TAF AMD
KLGA 010237Z 0103/0124 26006KT P6SM SKC
     FM011600 27010KT P6SM SCT150
     FM011900 25012G19KT P6SM SCT070=



000
FTUS41 KOKX 010237 AAA
TAFBDR
TAF AMD
KBDR 010237Z 0103/0124 VRB03KT P6SM SKC
     FM011300 24007KT P6SM FEW150
     FM011800 24011KT P6SM SCT060=



000
FTUS41 KOKX 010237 AAA
TAFISP
TAF AMD
KISP 010237Z 0103/0124 24004KT P6SM SKC
     FM011400 25008KT P6SM FEW150
     FM011700 24012G20KT P6SM SCT060
     FM012200 25009KT P6SM SCT060=



000
FTUS41 KOKX 010237 AAB
TAFJFK
TAF AMD
KJFK 010237Z 0103/0206 25006KT P6SM SKC
     FM011500 24010KT P6SM SCT150
     FM011900 23014G21KT P6SM SCT060
     FM020000 28010KT P6SM FEW060=



000
FTUS41 KOKX 010237 AAB
TAFEWR
TAF AMD
KEWR 010237Z 0103/0206 25005KT P6SM SKC
     FM011500 27010KT P6SM SCT150
     FM011800 26012G21KT P6SM SCT060
     FM012300 29011KT P6SM FEW060
     FM020300 30006KT P6SM SKC=



000
FTUS41 KOKX 010237 AAA
TAFTEB
TAF AMD
KTEB 010237Z 0103/0124 VRB03KT P6SM SKC
     FM011400 27007KT P6SM SCT150
     FM011600 27012G18KT P6SM SCT060=



000
FTUS41 KOKX 010237 AAA
TAFGON
TAF AMD
KGON 010237Z 0103/0124 VRB02KT P6SM SKC
     FM011300 23008KT P6SM SKC
     FM011600 21009KT P6SM SCT060 SCT150=



000
FTUS41 KOKX 010237 AAA
TAFLGA
TAF AMD
KLGA 010237Z 0103/0124 26006KT P6SM SKC
     FM011600 27010KT P6SM SCT150
     FM011900 25012G19KT P6SM SCT070=



000
FTUS41 KOKX 010108 AAA
TAFJFK
TAF AMD
KJFK 010108Z 0101/0206 32008KT P6SM SKC
     FM010300 25008KT P6SM SKC
     FM011500 24010KT P6SM SCT150
     FM011900 23014G21KT P6SM SCT060
     FM020000 28010KT P6SM FEW060=



000
FTUS41 KOKX 010108 AAA
TAFJFK
TAF AMD
KJFK 010108Z 0101/0206 32008KT P6SM SKC
     FM010300 25008KT P6SM SKC
     FM011500 24010KT P6SM SCT150
     FM011900 23014G21KT P6SM SCT060
     FM020000 28010KT P6SM FEW060=



000
FTUS41 KOKX 010105 AAA
TAFEWR
TAF AMD
KEWR 010105Z 0101/0206 25005KT P6SM SKC
     FM011500 27010KT P6SM SCT150
     FM011800 26012G21KT P6SM SCT060
     FM012300 29011KT P6SM FEW060
     FM020300 30006KT P6SM SKC=



000
FTUS41 KOKX 312320
TAFBDR
TAF
KBDR 312320Z 0100/0124 VRB03KT P6SM SKC
     FM011300 24007KT P6SM FEW150
     FM011800 24011KT P6SM SCT060=



000
FTUS41 KOKX 312320
TAFSWF
TAF
KSWF 312320Z 0100/0206 28007KT P6SM SKC
     FM010200 VRB02KT P6SM SCT100
     FM011600 28012G18KT P6SM SCT050 BKN100
     FM012200 29009KT P6SM SCT050
     FM020100 VRB03KT P6SM FEW050
      AMD NOT SKED=



000
FTUS41 KOKX 312320
TAFGON
TAF
KGON 312320Z 0100/0124 27006KT P6SM SKC
     FM010100 VRB02KT P6SM SKC
     FM011300 23008KT P6SM SKC
     FM011600 21009KT P6SM SCT060 SCT150=



000
FTUS41 KOKX 312320
TAFJFK
TAF
KJFK 312320Z 0100/0206 32008KT P6SM FEW070
     FM010100 24008KT P6SM SKC
     FM011500 24010KT P6SM SCT150
     FM011900 23014G21KT P6SM SCT060
     FM020000 28010KT P6SM FEW060=



000
FTUS41 KOKX 312320
TAFEWR
TAF
KEWR 312320Z 0100/0206 26008KT P6SM SKC
     FM011500 27010KT P6SM SCT150
     FM011800 26012G21KT P6SM SCT060
     FM012300 29011KT P6SM FEW060
     FM020300 30006KT P6SM SKC=



000
FTUS41 KOKX 312320
TAFISP
TAF
KISP 312320Z 0100/0124 30006KT P6SM SKC
     FM010100 24004KT P6SM SKC
     FM011400 25008KT P6SM FEW150
     FM011700 24012G20KT P6SM SCT060
     FM012200 25009KT P6SM SCT060=



000
FTUS41 KOKX 312320
TAFTEB
TAF
KTEB 312320Z 0100/0124 26004KT P6SM SKC
     FM011400 27007KT P6SM SCT150
     FM011600 27012G18KT P6SM SCT060=



000
FTUS41 KOKX 312320
TAFLGA
TAF
KLGA 312320Z 0100/0124 30009KT P6SM FEW070
     FM010100 26006KT P6SM SKC
     FM011600 27010KT P6SM SCT150
     FM011900 25012G19KT P6SM SCT070=



000
FTUS41 KOKX 312310 AAC
TAFEWR
TAF AMD
KEWR 312310Z 3123/0124 29011KT P6SM FEW070
     FM010000 26008KT P6SM SKC
     FM011500 27010KT P6SM SCT150
     FM011800 26012G21KT P6SM SCT060
     FM012300 29011KT P6SM FEW060=



000
FTUS41 KOKX 312309 AAC
TAFJFK
TAF AMD
KJFK 312309Z 3123/0124 30008KT P6SM FEW070
     FM010100 26006KT P6SM SKC
     FM011500 23012G18KT P6SM SCT060
     FM012000 26014G20KT P6SM SCT060
     FM012300 27012KT P6SM SCT060=



000
FTUS41 KOKX 312219 AAD
TAFISP
TAF AMD
KISP 312219Z 3122/0118 31010KT P6SM FEW070
     FM312300 25008KT P6SM SKC
     FM011600 23012G18KT P6SM SCT060=



000
FTUS41 KOKX 312217 AAC
TAFLGA
TAF AMD
KLGA 312217Z 3122/0118 30010KT P6SM FEW070
     FM010100 25008KT P6SM FEW060
     FM011600 27014G20KT P6SM SCT060=



000
FTUS41 KOKX 312217 AAC
TAFLGA
TAF AMD
KLGA 312217Z 3122/0118 30010KT P6SM FEW070
     FM010100 25008KT P6SM FEW060
     FM011600 27014G20KT P6SM SCT060=



000
FTUS41 KOKX 312140 AAB
TAFBDR
TAF AMD
KBDR 312140Z 3122/0118 27010KT P6SM SKC
     FM312300 25006KT P6SM SKC
     FM011300 23007KT P6SM FEW060
     FM011600 24010G16KT P6SM SCT060=



000
FTUS41 KOKX 312139 AAC
TAFISP
TAF AMD
KISP 312139Z 3122/0118 27009G19KT P6SM FEW040
     FM312300 25008KT P6SM FEW070
     FM011600 23012G18KT P6SM SCT060=



000
FTUS41 KOKX 312138 AAB
TAFLGA
TAF AMD
KLGA 312138Z 3122/0118 27009G18KT P6SM FEW070
     FM010100 25008KT P6SM FEW060
     FM011600 27014G20KT P6SM SCT060=



000
FTUS41 KOKX 312138 AAB
TAFLGA
TAF AMD
KLGA 312138Z 3122/0118 27009G18KT P6SM FEW070
     FM010100 25008KT P6SM FEW060
     FM011600 27014G20KT P6SM SCT060=



000
FTUS41 KOKX 312137 AAB
TAFEWR
TAF AMD
KEWR 312137Z 3122/0124 31008KT P6SM FEW070
     FM010100 26008KT P6SM FEW060
     FM011600 27014G20KT P6SM SCT060
     FM012300 30010KT P6SM SCT060=



000
FTUS41 KOKX 311950 AAA
TAFLGA
TAF AMD
KLGA 311950Z 3120/0118 29011G18KT P6SM FEW060
      TEMPO 3122/3124 20010KT
     FM010100 25008KT P6SM FEW060
     FM011600 27014G20KT P6SM SCT060=



000
FTUS41 KOKX 311950 AAA
TAFBDR
TAF AMD
KBDR 311950Z 3120/0118 22012KT P6SM FEW060
     FM312300 25006KT P6SM FEW060
     FM011300 23007KT P6SM FEW060
     FM011600 24010G16KT P6SM SCT060=



000
FTUS41 KOKX 311950 AAB
TAFJFK
TAF AMD
KJFK 311950Z 3120/0124 20012KT P6SM FEW060
     FM010100 25008KT P6SM FEW060
     FM011500 23012G18KT P6SM SCT060
     FM012000 26014G20KT P6SM SCT060
     FM012300 27012KT P6SM SCT060=



000
FTUS41 KOKX 311950 AAB
TAFISP
TAF AMD
KISP 311950Z 3120/0118 30010G16KT P6SM FEW060
     FM312030 22010KT P6SM FEW060
     FM312300 24008KT P6SM FEW060
     FM011600 23012G18KT P6SM SCT060=



000
FTUS41 KOKX 311950 AAA
TAFEWR
TAF AMD
KEWR 311950Z 3120/0124 28011G18KT P6SM FEW060
     FM010000 26008KT P6SM FEW060
     FM011600 27014G20KT P6SM SCT060
     FM012300 30010KT P6SM SCT060=



000
FTUS41 KOKX 311950 AAA
TAFGON
TAF AMD
KGON 311950Z 3120/0118 23012KT P6SM FEW060
     FM312300 23006KT P6SM FEW060
     FM010100 VRB03KT P6SM FEW060
     FM011300 23007KT P6SM FEW060
     FM011600 21008KT P6SM SCT060=



000
FTUS41 KOKX 311950 AAA
TAFTEB
TAF AMD
KTEB 311950Z 3120/0118 30010G16KT P6SM FEW060
     FM312200 27008KT P6SM FEW060
     FM010300 VRB03KT P6SM FEW060
     FM011300 26007KT P6SM FEW060
     FM011600 27012G18KT P6SM SCT060=



000
FTUS41 KOKX 311950 AAA
TAFSWF
TAF AMD
KSWF 311950Z 3120/0124 29010KT P6SM SKC
     FM312300 29007KT P6SM SKC
     FM010200 VRB02KT P6SM FEW050 SCT100
     FM011600 28012G18KT P6SM SCT050 BKN100
     FM012300 29007KT P6SM SCT060
      AMD NOT SKED=



000
FTUS41 KOKX 311805 AAA
TAFISP
TAF AMD
KISP 311805Z 3118/0118 30010G16KT P6SM FEW060
     FM312100 23010KT P6SM FEW060
     FM312300 24008KT P6SM FEW060
     FM011600 23012G18KT P6SM SCT060=



000
FTUS41 KOKX 311805 AAA
TAFISP
TAF AMD
KISP 311805Z 3118/0118 30010G16KT P6SM FEW060
     FM312100 23010KT P6SM FEW060
     FM312300 24008KT P6SM FEW060
     FM011600 23012G18KT P6SM SCT060=



000
FTUS41 KOKX 311804 AAA
TAFJFK
TAF AMD
KJFK 311804Z 3118/0124 29012G18KT P6SM FEW060
     FM311915 20012KT P6SM FEW060
     FM010100 25008KT P6SM FEW060
     FM011500 23012G18KT P6SM SCT060
     FM012000 26014G20KT P6SM SCT060
     FM012300 27012KT P6SM SCT060=



000
FTUS41 KOKX 311804 AAA
TAFJFK
TAF AMD
KJFK 311804Z 3118/0124 29012G18KT P6SM FEW060
     FM311915 20012KT P6SM FEW060
     FM010100 25008KT P6SM FEW060
     FM011500 23012G18KT P6SM SCT060
     FM012000 26014G20KT P6SM SCT060
     FM012300 27012KT P6SM SCT060=



000
FTUS41 KOKX 311732
TAFBDR
TAF
KBDR 311732Z 3118/0118 22010KT P6SM FEW060
     FM312300 25006KT P6SM FEW060
     FM011300 23007KT P6SM FEW060
     FM011600 24010G16KT P6SM SCT060=



000
FTUS41 KOKX 311732
TAFGON
TAF
KGON 311732Z 3118/0118 23009KT P6SM FEW060
     FM010100 VRB03KT P6SM FEW060
     FM011300 23007KT P6SM FEW060
     FM011600 21008KT P6SM SCT060=



000
FTUS41 KOKX 311732
TAFJFK
TAF
KJFK 311732Z 3118/0124 29012G18KT P6SM FEW060
     FM312000 20012KT P6SM FEW060
     FM010100 25008KT P6SM FEW060
     FM011500 23012G18KT P6SM SCT060
     FM012000 26014G20KT P6SM SCT060
     FM012300 27012KT P6SM SCT060=



000
FTUS41 KOKX 311732
TAFISP
TAF
KISP 311732Z 3118/0118 30010G16KT P6SM FEW060
     FM312200 23010KT P6SM FEW060
     FM312300 24008KT P6SM FEW060
     FM011600 23012G18KT P6SM SCT060=



000
FTUS41 KOKX 311732
TAFSWF
TAF
KSWF 311732Z 3118/0124 29010KT P6SM SKC
     FM312300 29007KT P6SM SKC
     FM010200 VRB02KT P6SM FEW050 SCT100
     FM011600 28012G18KT P6SM SCT050 BKN100
     FM012300 29007KT P6SM SCT060
      AMD NOT SKED=



000
FTUS41 KOKX 311732
TAFTEB
TAF
KTEB 311732Z 3118/0118 30010G16KT P6SM FEW060
     FM312200 27008KT P6SM FEW060
     FM010300 VRB03KT P6SM FEW060
     FM011300 26007KT P6SM FEW060
     FM011600 27012G18KT P6SM SCT060=



000
FTUS41 KOKX 311732
TAFEWR
TAF
KEWR 311732Z 3118/0124 28011G18KT P6SM FEW060
      TEMPO 3118/3120 31010G16KT P6SM FEW070
     FM010000 26008KT P6SM FEW060
     FM011600 27014G20KT P6SM SCT060
     FM012300 30010KT P6SM SCT060=



000
FTUS41 KOKX 311732
TAFLGA
TAF
KLGA 311732Z 3118/0118 32010G16KT P6SM FEW070
     FM312000 29011G18KT P6SM FEW060
     FM010100 25008KT P6SM FEW060
     FM011600 27014G20KT P6SM SCT060=



000
FTUS41 KOKX 311559 AAB
TAFEWR
TAF AMD
KEWR 311559Z 3116/0118 31007KT P6SM FEW070
     FM311700 28011G18KT P6SM FEW060
     FM010000 26008KT P6SM FEW060
     FM011500 25012G18KT P6SM SCT060=



000
FTUS41 KOKX 311558 AAB
TAFLGA
TAF AMD
KLGA 311558Z 3116/0112 32007KT P6SM FEW070
     FM311800 28011G18KT P6SM FEW060
     FM010100 25008KT P6SM FEW060=



000
FTUS41 KOKX 311558 AAB
TAFLGA
TAF AMD
KLGA 311558Z 3116/0112 32007KT P6SM FEW070
     FM311800 28011G18KT P6SM FEW060
     FM010100 25008KT P6SM FEW060=



000
FTUS41 KOKX 311401 AAA
TAFLGA
TAF AMD
KLGA 311401Z 3114/0112 32007KT P6SM FEW070
     FM311600 28011G18KT P6SM FEW060
     FM010100 25008KT P6SM FEW060=



000
FTUS41 KOKX 311401 AAA
TAFBDR
TAF AMD
KBDR 311401Z 3114/0112 25010KT P6SM FEW050
     FM311700 22010KT P6SM FEW060
     FM312300 25006KT P6SM FEW060=



000
FTUS41 KOKX 311401 AAA
TAFJFK
TAF AMD
KJFK 311401Z 3114/0118 32007KT P6SM FEW070
     FM311600 28011KT P6SM FEW060
     FM311800 24012G18KT P6SM FEW060
     FM312000 20012KT P6SM FEW060
     FM010100 25008KT P6SM FEW060
     FM011500 22012G18KT P6SM SCT060=



000
FTUS41 KOKX 311401 AAA
TAFISP
TAF AMD
KISP 311401Z 3114/0112 31006KT P6SM FEW070
     FM311600 28010G17KT P6SM FEW060
     FM312000 25010G17KT P6SM FEW060
     FM312300 24008KT P6SM FEW060=



000
FTUS41 KOKX 311401 AAA
TAFTEB
TAF AMD
KTEB 311401Z 3114/0112 31006KT P6SM FEW070
     FM311600 28010G16KT P6SM FEW060
     FM312200 27008KT P6SM FEW060
     FM010300 VRB03KT P6SM FEW060=



000
FTUS41 KOKX 311401 AAA
TAFEWR
TAF AMD
KEWR 311401Z 3114/0118 30007KT P6SM FEW070
     FM311600 28011G18KT P6SM FEW060
     FM010000 26008KT P6SM FEW060
     FM011500 25012G18KT P6SM SCT060=



000
FTUS41 KOKX 311401 AAB
TAFGON
TAF AMD
KGON 311401Z 3114/0112 24009KT P6SM FEW060
     FM010100 VRB03KT P6SM FEW060=



000
FTUS41 KOKX 311401 AAA
TAFSWF
TAF AMD
KSWF 311401Z 3114/0118 28007KT P6SM SKC
     FM311500 29010KT P6SM SKC
     FM312300 29007KT P6SM SKC
     FM010200 VRB02KT P6SM FEW050 SCT100
     FM011500 27011KT P6SM SCT050 BKN100
      AMD NOT SKED=



000
FTUS41 KOKX 311155 AAA
TAFGON
TAF AMD
KGON 311155Z 3112/0112 31005KT P6SM SCT070
      TEMPO 3112/3113 1SM BR VV002
     FM311600 24009KT P6SM FEW060
     FM010100 VRB03KT P6SM FEW060=



000
FTUS41 KOKX 311155 AAA
TAFGON
TAF AMD
KGON 311155Z 3112/0112 31005KT P6SM SCT070
      TEMPO 3112/3113 1SM BR VV002
     FM311600 24009KT P6SM FEW060
     FM010100 VRB03KT P6SM FEW060=



000
FTUS41 KOKX 311124
TAFBDR
TAF
KBDR 311124Z 3112/0112 32007KT P6SM FEW070
     FM311500 25010KT P6SM FEW050
     FM311700 22010KT P6SM FEW060
     FM312300 25006KT P6SM FEW060=



000
FTUS41 KOKX 311124
TAFSWF
TAF
KSWF 311124Z 3112/0118 28007KT P6SM SKC
     FM311500 29010KT P6SM SKC
     FM312300 29007KT P6SM SKC
     FM010200 VRB02KT P6SM FEW050 SCT100
     FM011500 27011KT P6SM SCT050 BKN100
      AMD NOT SKED=



000
FTUS41 KOKX 311124
TAFEWR
TAF
KEWR 311124Z 3112/0118 30008KT P6SM FEW070
     FM311600 28011G18KT P6SM FEW060
     FM010000 26008KT P6SM FEW060
     FM011500 25012G18KT P6SM SCT060=



000
FTUS41 KOKX 311124
TAFLGA
TAF
KLGA 311124Z 3112/0112 32007KT P6SM FEW070
     FM311600 28011G18KT P6SM FEW060
     FM010100 25008KT P6SM FEW060=



000
FTUS41 KOKX 311124
TAFLGA
TAF
KLGA 311124Z 3112/0112 32007KT P6SM FEW070
     FM311600 28011G18KT P6SM FEW060
     FM010100 25008KT P6SM FEW060=



000
FTUS41 KOKX 311124
TAFJFK
TAF
KJFK 311124Z 3112/0118 32007KT P6SM FEW070
     FM311600 28011KT P6SM FEW060
     FM311800 23012G18KT P6SM FEW060
     FM312000 20014G20KT P6SM FEW060
     FM010100 25008KT P6SM FEW060
     FM011500 22012G18KT P6SM SCT060=



000
FTUS41 KOKX 311124
TAFISP
TAF
KISP 311124Z 3112/0112 31006KT P6SM FEW070
     FM311600 28010G17KT P6SM FEW060
     FM312000 25010G17KT P6SM FEW060
     FM312300 24008KT P6SM FEW060=



000
FTUS41 KOKX 311124
TAFGON
TAF
KGON 311124Z 3112/0112 31005KT P6SM SCT070
     FM311600 24009KT P6SM FEW060
     FM010100 VRB03KT P6SM FEW060=



000
FTUS41 KOKX 311124
TAFTEB
TAF
KTEB 311124Z 3112/0112 31006KT P6SM FEW070
     FM311600 28010G16KT P6SM FEW060
     FM312200 27008KT P6SM FEW060
     FM010300 VRB03KT P6SM FEW060=



000
FTUS41 KOKX 311124
TAFSWF
TAF
KSWF 311124Z 3112/0118 28007KT P6SM SKC
     FM311500 29010KT P6SM SKC
     FM312300 29007KT P6SM SKC
     FM010200 VRB02KT P6SM FEW050 SCT100
     FM011500 27011KT P6SM SCT050 BKN100
      AMD NOT SKED=



000
FTUS41 KOKX 311124
TAFEWR
TAF
KEWR 311124Z 3112/0118 30008KT P6SM FEW070
     FM311600 28011G18KT P6SM FEW060
     FM010000 26008KT P6SM FEW060
     FM011500 25012G18KT P6SM SCT060=



000
FTUS41 KOKX 311124
TAFBDR
TAF
KBDR 311124Z 3112/0112 32007KT P6SM FEW070
     FM311500 25010KT P6SM FEW050
     FM311700 22010KT P6SM FEW060
     FM312300 25006KT P6SM FEW060=



000
FTUS41 KOKX 311124
TAFGON
TAF
KGON 311124Z 3112/0112 31005KT P6SM SCT070
     FM311600 24009KT P6SM FEW060
     FM010100 VRB03KT P6SM FEW060=



000
FTUS41 KOKX 311124
TAFISP
TAF
KISP 311124Z 3112/0112 31006KT P6SM FEW070
     FM311600 28010G17KT P6SM FEW060
     FM312000 25010G17KT P6SM FEW060
     FM312300 24008KT P6SM FEW060=



000
FTUS41 KOKX 311124
TAFJFK
TAF
KJFK 311124Z 3112/0118 32007KT P6SM FEW070
     FM311600 28011KT P6SM FEW060
     FM311800 23012G18KT P6SM FEW060
     FM312000 20014G20KT P6SM FEW060
     FM010100 25008KT P6SM FEW060
     FM011500 22012G18KT P6SM SCT060=



000
FTUS41 KOKX 311124
TAFTEB
TAF
KTEB 311124Z 3112/0112 31006KT P6SM FEW070
     FM311600 28010G16KT P6SM FEW060
     FM312200 27008KT P6SM FEW060
     FM010300 VRB03KT P6SM FEW060=



000
FTUS41 KOKX 311012 AAC
TAFGON
TAF AMD
KGON 311012Z 3110/0106 30004KT P6SM SCT003 SCT070
      TEMPO 3110/3111 1SM BR VV003
     FM311600 24009KT P6SM FEW060
     FM010000 27004KT P6SM FEW050=



000
FTUS41 KOKX 310811 AAA
TAFTEB
TAF AMD
KTEB 310811Z 3108/0106 32004KT P6SM FEW070
     FM311600 28010G16KT P6SM FEW060
     FM312300 27007KT P6SM FEW060
     FM010300 VRB03KT P6SM FEW050=



000
FTUS41 KOKX 310811 AAB
TAFEWR
TAF AMD
KEWR 310811Z 3108/0112 32007KT P6SM FEW070
     FM311600 28011G18KT P6SM FEW060
     FM010000 26008KT P6SM FEW050=



000
FTUS41 KOKX 310811 AAB
TAFJFK
TAF AMD
KJFK 310811Z 3108/0112 32007KT P6SM FEW060
     FM311600 28011KT P6SM FEW050
     FM311800 23012G18KT P6SM FEW060
     FM010100 25008KT P6SM FEW050=



000
FTUS41 KOKX 310811 AAA
TAFBDR
TAF AMD
KBDR 310811Z 3108/0106 32004KT P6SM FEW070
     FM311500 25010KT P6SM FEW050
     FM311700 22010KT P6SM FEW060
     FM312300 26006KT P6SM FEW050=



000
FTUS41 KOKX 310811 AAA
TAFISP
TAF AMD
KISP 310811Z 3108/0106 32005KT P6SM FEW070
     FM311600 29010G17KT P6SM FEW060
     FM312000 25010G17KT P6SM FEW060
     FM312200 24008KT P6SM FEW050=



000
FTUS41 KOKX 310811 AAB
TAFLGA
TAF AMD
KLGA 310811Z 3108/0106 32007KT P6SM FEW060
     FM311600 28011G18KT P6SM FEW060
     FM010100 26008KT P6SM FEW050=



000
FTUS41 KOKX 310811 AAB
TAFGON
TAF AMD
KGON 310811Z 3108/0106 VRB02KT 4SM BR SCT004 BKN070
      TEMPO 3109/3110 2SM BR BKN004
     FM311000 30004KT P6SM FEW010 SCT070
      TEMPO 3110/3111 5SM BR
     FM311600 24009KT P6SM FEW060
     FM010000 27004KT P6SM FEW050=



000
FTUS41 KOKX 310753 AAA
TAFGON
TAF AMD
KGON 310753Z 3108/0106 VRB02KT 4SM BR SCT003 BKN060
      TEMPO 3108/3109 BKN003
     FM311000 30004KT P6SM FEW010 SCT090 BKN250
      TEMPO 3110/3111 5SM BR
     FM311600 24009KT P6SM FEW060
     FM010000 27004KT P6SM FEW050=



000
FTUS41 KOKX 310659 AAA
TAFEWR
TAF AMD
KEWR 310659Z 3107/0112 32007KT P6SM FEW070 SCT250
     FM311600 28011G18KT P6SM FEW060
     FM010000 26008KT P6SM FEW050=



000
FTUS41 KOKX 310659 AAA
TAFLGA
TAF AMD
KLGA 310659Z 3107/0106 32007KT P6SM FEW070 SCT250
     FM311600 28011G18KT P6SM FEW060
     FM010100 26008KT P6SM FEW050=



000
FTUS41 KOKX 310659 AAA
TAFJFK
TAF AMD
KJFK 310659Z 3107/0112 32006KT P6SM FEW070 SCT250
     FM311600 28011KT P6SM FEW050
     FM311800 23012G18KT P6SM FEW060
     FM010100 25008KT P6SM FEW050=



000
FTUS41 KOKX 310659 AAA
TAFJFK
TAF AMD
KJFK 310659Z 3107/0112 32006KT P6SM FEW070 SCT250
     FM311600 28011KT P6SM FEW050
     FM311800 23012G18KT P6SM FEW060
     FM010100 25008KT P6SM FEW050=



    US Dept of Commerce
    National Oceanic and Atmospheric Administration
    National Weather Service
    1325 East West Highway
    Silver Spring, MD 20910
    Page Author: NWS Internet Services Team
Disclaimer
Information Quality
Credits
Glossary
Privacy Policy
Freedom of Information Act (FOIA)
About Us
Career Opportunities